<?xml version="1.0" encoding="UTF-8" standalone="no" ?>
<gpx xmlns="http://www.topografix.com/GPX/1/1" xmlns:xsi="http://www.w3.org/2001/XMLSchema-instance" xsi:schemaLocation="http://www.topografix.com/GPX/1/1 http://www.topografix.com/GPX/1/1/gpx.xsd" version="1.1" creator="VisuGPX - https://www.visugpx.com">
  <metadata>
    <name>GR58 - La Monta-Le Roux par crêtes</name>
    <desc><![CDATA[4ème étape
Variante par crêtes et Pic de Gilly]]></desc>
  </metadata>
  <trk>
    <name><![CDATA[La Monta1]]></name>
    <trkseg>
      <trkpt lat="44.76611" lon="6.98313">
        <ele>1668.9</ele>
        <time>2015-07-20T05:57:12Z</time>
      </trkpt>
      <trkpt lat="44.76612" lon="6.98315">
        <ele>1672.6</ele>
        <time>2015-07-20T05:58:26Z</time>
      </trkpt>
      <trkpt lat="44.76612" lon="6.98315">
        <ele>1672.6</ele>
        <time>2015-07-20T05:58:26Z</time>
      </trkpt>
      <trkpt lat="44.76612" lon="6.98315">
        <ele>1672.7</ele>
        <time>2015-07-20T05:58:27Z</time>
      </trkpt>
      <trkpt lat="44.76612" lon="6.98315">
        <ele>1672.7</ele>
        <time>2015-07-20T05:58:28Z</time>
      </trkpt>
      <trkpt lat="44.76618" lon="6.98305">
        <ele>1673.3</ele>
        <time>2015-07-20T05:59:31Z</time>
      </trkpt>
      <trkpt lat="44.76618" lon="6.98304">
        <ele>1673.1</ele>
        <time>2015-07-20T05:59:32Z</time>
      </trkpt>
      <trkpt lat="44.76628" lon="6.98285">
        <ele>1671.3</ele>
        <time>2015-07-20T05:59:55Z</time>
      </trkpt>
      <trkpt lat="44.76636" lon="6.9829">
        <ele>1673.5</ele>
        <time>2015-07-20T06:00:11Z</time>
      </trkpt>
      <trkpt lat="44.76643" lon="6.98295">
        <ele>1676.3</ele>
        <time>2015-07-20T06:00:24Z</time>
      </trkpt>
      <trkpt lat="44.76651" lon="6.98302">
        <ele>1677.5</ele>
        <time>2015-07-20T06:00:37Z</time>
      </trkpt>
      <trkpt lat="44.76651" lon="6.98302">
        <ele>1677.6</ele>
        <time>2015-07-20T06:00:38Z</time>
      </trkpt>
      <trkpt lat="44.76666" lon="6.98313">
        <ele>1680.4</ele>
        <time>2015-07-20T06:01:01Z</time>
      </trkpt>
      <trkpt lat="44.76674" lon="6.98317">
        <ele>1690.2</ele>
        <time>2015-07-20T06:01:24Z</time>
      </trkpt>
      <trkpt lat="44.76682" lon="6.98321">
        <ele>1695</ele>
        <time>2015-07-20T06:01:34Z</time>
      </trkpt>
      <trkpt lat="44.76689" lon="6.98327">
        <ele>1695.5</ele>
        <time>2015-07-20T06:01:44Z</time>
      </trkpt>
      <trkpt lat="44.7669" lon="6.98328">
        <ele>1695.4</ele>
        <time>2015-07-20T06:01:45Z</time>
      </trkpt>
      <trkpt lat="44.76702" lon="6.9834">
        <ele>1694.7</ele>
        <time>2015-07-20T06:02:04Z</time>
      </trkpt>
      <trkpt lat="44.7671" lon="6.98346">
        <ele>1694.8</ele>
        <time>2015-07-20T06:02:14Z</time>
      </trkpt>
      <trkpt lat="44.76717" lon="6.98353">
        <ele>1694.9</ele>
        <time>2015-07-20T06:02:24Z</time>
      </trkpt>
      <trkpt lat="44.76724" lon="6.98361">
        <ele>1695.6</ele>
        <time>2015-07-20T06:02:34Z</time>
      </trkpt>
      <trkpt lat="44.76731" lon="6.98369">
        <ele>1697</ele>
        <time>2015-07-20T06:02:44Z</time>
      </trkpt>
      <trkpt lat="44.76739" lon="6.98374">
        <ele>1696.9</ele>
        <time>2015-07-20T06:02:54Z</time>
      </trkpt>
      <trkpt lat="44.76739" lon="6.98375">
        <ele>1696.7</ele>
        <time>2015-07-20T06:02:55Z</time>
      </trkpt>
      <trkpt lat="44.7675" lon="6.98391">
        <ele>1694.6</ele>
        <time>2015-07-20T06:03:14Z</time>
      </trkpt>
      <trkpt lat="44.76754" lon="6.98403">
        <ele>1692.2</ele>
        <time>2015-07-20T06:03:25Z</time>
      </trkpt>
      <trkpt lat="44.76754" lon="6.98414">
        <ele>1691.5</ele>
        <time>2015-07-20T06:03:34Z</time>
      </trkpt>
      <trkpt lat="44.76755" lon="6.98426">
        <ele>1693.3</ele>
        <time>2015-07-20T06:03:54Z</time>
      </trkpt>
      <trkpt lat="44.76758" lon="6.98438">
        <ele>1694.5</ele>
        <time>2015-07-20T06:04:05Z</time>
      </trkpt>
      <trkpt lat="44.76758" lon="6.98439">
        <ele>1694.6</ele>
        <time>2015-07-20T06:04:06Z</time>
      </trkpt>
      <trkpt lat="44.76763" lon="6.9846">
        <ele>1699.6</ele>
        <time>2015-07-20T06:04:25Z</time>
      </trkpt>
      <trkpt lat="44.76766" lon="6.98472">
        <ele>1701.5</ele>
        <time>2015-07-20T06:04:34Z</time>
      </trkpt>
      <trkpt lat="44.76769" lon="6.98483">
        <ele>1701.2</ele>
        <time>2015-07-20T06:04:44Z</time>
      </trkpt>
      <trkpt lat="44.76774" lon="6.98493">
        <ele>1702.8</ele>
        <time>2015-07-20T06:04:54Z</time>
      </trkpt>
      <trkpt lat="44.76778" lon="6.98503">
        <ele>1705.8</ele>
        <time>2015-07-20T06:05:03Z</time>
      </trkpt>
      <trkpt lat="44.76781" lon="6.98514">
        <ele>1708</ele>
        <time>2015-07-20T06:05:13Z</time>
      </trkpt>
      <trkpt lat="44.76781" lon="6.98515">
        <ele>1708.1</ele>
        <time>2015-07-20T06:05:14Z</time>
      </trkpt>
      <trkpt lat="44.76789" lon="6.98535">
        <ele>1710.8</ele>
        <time>2015-07-20T06:05:33Z</time>
      </trkpt>
      <trkpt lat="44.76794" lon="6.98545">
        <ele>1711.2</ele>
        <time>2015-07-20T06:05:43Z</time>
      </trkpt>
      <trkpt lat="44.76799" lon="6.98554">
        <ele>1711.1</ele>
        <time>2015-07-20T06:05:53Z</time>
      </trkpt>
      <trkpt lat="44.76805" lon="6.98562">
        <ele>1712.5</ele>
        <time>2015-07-20T06:06:03Z</time>
      </trkpt>
      <trkpt lat="44.7681" lon="6.98572">
        <ele>1714.7</ele>
        <time>2015-07-20T06:06:12Z</time>
      </trkpt>
      <trkpt lat="44.76817" lon="6.9858">
        <ele>1716</ele>
        <time>2015-07-20T06:06:20Z</time>
      </trkpt>
      <trkpt lat="44.76817" lon="6.98581">
        <ele>1716.1</ele>
        <time>2015-07-20T06:06:21Z</time>
      </trkpt>
      <trkpt lat="44.76834" lon="6.98584">
        <ele>1722.1</ele>
        <time>2015-07-20T06:06:48Z</time>
      </trkpt>
      <trkpt lat="44.76842" lon="6.98579">
        <ele>1722.9</ele>
        <time>2015-07-20T06:06:57Z</time>
      </trkpt>
      <trkpt lat="44.76849" lon="6.98586">
        <ele>1723.9</ele>
        <time>2015-07-20T06:07:08Z</time>
      </trkpt>
      <trkpt lat="44.76854" lon="6.98597">
        <ele>1725.4</ele>
        <time>2015-07-20T06:07:18Z</time>
      </trkpt>
      <trkpt lat="44.76859" lon="6.98606">
        <ele>1726.5</ele>
        <time>2015-07-20T06:07:26Z</time>
      </trkpt>
      <trkpt lat="44.76859" lon="6.98608">
        <ele>1726.7</ele>
        <time>2015-07-20T06:07:27Z</time>
      </trkpt>
      <trkpt lat="44.7687" lon="6.98625">
        <ele>1730.3</ele>
        <time>2015-07-20T06:07:44Z</time>
      </trkpt>
      <trkpt lat="44.76875" lon="6.98635">
        <ele>1731.2</ele>
        <time>2015-07-20T06:07:53Z</time>
      </trkpt>
      <trkpt lat="44.7688" lon="6.98643">
        <ele>1731.9</ele>
        <time>2015-07-20T06:08:02Z</time>
      </trkpt>
      <trkpt lat="44.76887" lon="6.98652">
        <ele>1734.2</ele>
        <time>2015-07-20T06:08:12Z</time>
      </trkpt>
      <trkpt lat="44.76893" lon="6.98659">
        <ele>1735.1</ele>
        <time>2015-07-20T06:08:21Z</time>
      </trkpt>
      <trkpt lat="44.769" lon="6.98666">
        <ele>1737.8</ele>
        <time>2015-07-20T06:08:31Z</time>
      </trkpt>
      <trkpt lat="44.76901" lon="6.98666">
        <ele>1738.1</ele>
        <time>2015-07-20T06:08:32Z</time>
      </trkpt>
      <trkpt lat="44.76912" lon="6.98649">
        <ele>1738.9</ele>
        <time>2015-07-20T06:08:50Z</time>
      </trkpt>
      <trkpt lat="44.76917" lon="6.9864">
        <ele>1739.1</ele>
        <time>2015-07-20T06:08:58Z</time>
      </trkpt>
      <trkpt lat="44.76924" lon="6.98632">
        <ele>1739.7</ele>
        <time>2015-07-20T06:09:06Z</time>
      </trkpt>
      <trkpt lat="44.76929" lon="6.98623">
        <ele>1741.2</ele>
        <time>2015-07-20T06:09:15Z</time>
      </trkpt>
      <trkpt lat="44.76935" lon="6.98613">
        <ele>1741.4</ele>
        <time>2015-07-20T06:09:24Z</time>
      </trkpt>
      <trkpt lat="44.76942" lon="6.98606">
        <ele>1742.2</ele>
        <time>2015-07-20T06:09:33Z</time>
      </trkpt>
      <trkpt lat="44.76942" lon="6.98606">
        <ele>1742.1</ele>
        <time>2015-07-20T06:09:34Z</time>
      </trkpt>
      <trkpt lat="44.76955" lon="6.98593">
        <ele>1746.6</ele>
        <time>2015-07-20T06:09:54Z</time>
      </trkpt>
      <trkpt lat="44.76961" lon="6.98584">
        <ele>1747.5</ele>
        <time>2015-07-20T06:10:02Z</time>
      </trkpt>
      <trkpt lat="44.76967" lon="6.98575">
        <ele>1748.1</ele>
        <time>2015-07-20T06:10:19Z</time>
      </trkpt>
      <trkpt lat="44.76973" lon="6.98567">
        <ele>1749.7</ele>
        <time>2015-07-20T06:10:29Z</time>
      </trkpt>
      <trkpt lat="44.76981" lon="6.98562">
        <ele>1750.3</ele>
        <time>2015-07-20T06:10:39Z</time>
      </trkpt>
      <trkpt lat="44.76982" lon="6.98561">
        <ele>1750.9</ele>
        <time>2015-07-20T06:10:40Z</time>
      </trkpt>
      <trkpt lat="44.76997" lon="6.98556">
        <ele>1756.8</ele>
        <time>2015-07-20T06:11:15Z</time>
      </trkpt>
      <trkpt lat="44.77005" lon="6.98551">
        <ele>1759.1</ele>
        <time>2015-07-20T06:11:32Z</time>
      </trkpt>
      <trkpt lat="44.77012" lon="6.98544">
        <ele>1761.5</ele>
        <time>2015-07-20T06:11:47Z</time>
      </trkpt>
      <trkpt lat="44.77012" lon="6.98544">
        <ele>1761.8</ele>
        <time>2015-07-20T06:11:48Z</time>
      </trkpt>
      <trkpt lat="44.77028" lon="6.98534">
        <ele>1763.8</ele>
        <time>2015-07-20T06:12:16Z</time>
      </trkpt>
      <trkpt lat="44.77035" lon="6.98541">
        <ele>1766.5</ele>
        <time>2015-07-20T06:12:39Z</time>
      </trkpt>
      <trkpt lat="44.77043" lon="6.98538">
        <ele>1769.1</ele>
        <time>2015-07-20T06:12:54Z</time>
      </trkpt>
      <trkpt lat="44.77044" lon="6.98537">
        <ele>1769.2</ele>
        <time>2015-07-20T06:12:55Z</time>
      </trkpt>
      <trkpt lat="44.77049" lon="6.98515">
        <ele>1770.7</ele>
        <time>2015-07-20T06:13:27Z</time>
      </trkpt>
      <trkpt lat="44.77052" lon="6.98504">
        <ele>1771.8</ele>
        <time>2015-07-20T06:13:39Z</time>
      </trkpt>
      <trkpt lat="44.77056" lon="6.98492">
        <ele>1773.2</ele>
        <time>2015-07-20T06:13:51Z</time>
      </trkpt>
      <trkpt lat="44.77062" lon="6.98484">
        <ele>1775.4</ele>
        <time>2015-07-20T06:14:02Z</time>
      </trkpt>
      <trkpt lat="44.77062" lon="6.98483">
        <ele>1775.5</ele>
        <time>2015-07-20T06:14:03Z</time>
      </trkpt>
      <trkpt lat="44.77072" lon="6.98464">
        <ele>1778</ele>
        <time>2015-07-20T06:14:30Z</time>
      </trkpt>
      <trkpt lat="44.7708" lon="6.98459">
        <ele>1780.1</ele>
        <time>2015-07-20T06:14:44Z</time>
      </trkpt>
      <trkpt lat="44.77087" lon="6.98452">
        <ele>1781.5</ele>
        <time>2015-07-20T06:14:56Z</time>
      </trkpt>
      <trkpt lat="44.77095" lon="6.98447">
        <ele>1783.4</ele>
        <time>2015-07-20T06:15:08Z</time>
      </trkpt>
      <trkpt lat="44.77095" lon="6.98446">
        <ele>1783.4</ele>
        <time>2015-07-20T06:15:09Z</time>
      </trkpt>
      <trkpt lat="44.77111" lon="6.98441">
        <ele>1787.3</ele>
        <time>2015-07-20T06:15:47Z</time>
      </trkpt>
      <trkpt lat="44.77118" lon="6.98434">
        <ele>1790</ele>
        <time>2015-07-20T06:16:06Z</time>
      </trkpt>
      <trkpt lat="44.77127" lon="6.98431">
        <ele>1792.8</ele>
        <time>2015-07-20T06:16:28Z</time>
      </trkpt>
      <trkpt lat="44.77127" lon="6.9843">
        <ele>1793</ele>
        <time>2015-07-20T06:16:29Z</time>
      </trkpt>
      <trkpt lat="44.77139" lon="6.98414">
        <ele>1794.7</ele>
        <time>2015-07-20T06:16:56Z</time>
      </trkpt>
      <trkpt lat="44.77145" lon="6.98405">
        <ele>1797</ele>
        <time>2015-07-20T06:17:06Z</time>
      </trkpt>
      <trkpt lat="44.77153" lon="6.98398">
        <ele>1796.4</ele>
        <time>2015-07-20T06:17:15Z</time>
      </trkpt>
      <trkpt lat="44.77161" lon="6.98394">
        <ele>1797.3</ele>
        <time>2015-07-20T06:17:27Z</time>
      </trkpt>
      <trkpt lat="44.7717" lon="6.98397">
        <ele>1800.7</ele>
        <time>2015-07-20T06:18:01Z</time>
      </trkpt>
      <trkpt lat="44.7717" lon="6.98397">
        <ele>1800.6</ele>
        <time>2015-07-20T06:18:02Z</time>
      </trkpt>
      <trkpt lat="44.77175" lon="6.98407">
        <ele>1803.2</ele>
        <time>2015-07-20T06:19:13Z</time>
      </trkpt>
      <trkpt lat="44.77181" lon="6.98429">
        <ele>1807.7</ele>
        <time>2015-07-20T06:19:54Z</time>
      </trkpt>
      <trkpt lat="44.77189" lon="6.98434">
        <ele>1810.5</ele>
        <time>2015-07-20T06:20:09Z</time>
      </trkpt>
      <trkpt lat="44.77198" lon="6.98436">
        <ele>1812.1</ele>
        <time>2015-07-20T06:20:24Z</time>
      </trkpt>
      <trkpt lat="44.77199" lon="6.98436">
        <ele>1812.5</ele>
        <time>2015-07-20T06:20:25Z</time>
      </trkpt>
      <trkpt lat="44.77214" lon="6.98427">
        <ele>1815.5</ele>
        <time>2015-07-20T06:20:55Z</time>
      </trkpt>
      <trkpt lat="44.77221" lon="6.98435">
        <ele>1817.7</ele>
        <time>2015-07-20T06:21:10Z</time>
      </trkpt>
      <trkpt lat="44.77229" lon="6.98438">
        <ele>1820.4</ele>
        <time>2015-07-20T06:21:35Z</time>
      </trkpt>
      <trkpt lat="44.7723" lon="6.98439">
        <ele>1820.2</ele>
        <time>2015-07-20T06:21:36Z</time>
      </trkpt>
      <trkpt lat="44.77245" lon="6.98446">
        <ele>1825.3</ele>
        <time>2015-07-20T06:22:20Z</time>
      </trkpt>
      <trkpt lat="44.77254" lon="6.98447">
        <ele>1827.2</ele>
        <time>2015-07-20T06:22:37Z</time>
      </trkpt>
      <trkpt lat="44.77255" lon="6.98447">
        <ele>1827.8</ele>
        <time>2015-07-20T06:22:38Z</time>
      </trkpt>
      <trkpt lat="44.7727" lon="6.98446">
        <ele>1831.6</ele>
        <time>2015-07-20T06:23:04Z</time>
      </trkpt>
      <trkpt lat="44.77278" lon="6.98444">
        <ele>1835.5</ele>
        <time>2015-07-20T06:23:19Z</time>
      </trkpt>
      <trkpt lat="44.77284" lon="6.98435">
        <ele>1837</ele>
        <time>2015-07-20T06:23:31Z</time>
      </trkpt>
      <trkpt lat="44.77292" lon="6.9843">
        <ele>1838.5</ele>
        <time>2015-07-20T06:23:45Z</time>
      </trkpt>
      <trkpt lat="44.77293" lon="6.9843">
        <ele>1838.4</ele>
        <time>2015-07-20T06:23:46Z</time>
      </trkpt>
      <trkpt lat="44.77308" lon="6.98433">
        <ele>1841.9</ele>
        <time>2015-07-20T06:24:14Z</time>
      </trkpt>
      <trkpt lat="44.77315" lon="6.9844">
        <ele>1845</ele>
        <time>2015-07-20T06:24:29Z</time>
      </trkpt>
      <trkpt lat="44.77322" lon="6.98445">
        <ele>1847.3</ele>
        <time>2015-07-20T06:24:46Z</time>
      </trkpt>
      <trkpt lat="44.77323" lon="6.98445">
        <ele>1847.2</ele>
        <time>2015-07-20T06:24:47Z</time>
      </trkpt>
      <trkpt lat="44.77336" lon="6.98456">
        <ele>1854.5</ele>
        <time>2015-07-20T06:25:40Z</time>
      </trkpt>
      <trkpt lat="44.77345" lon="6.98452">
        <ele>1856.6</ele>
        <time>2015-07-20T06:26:00Z</time>
      </trkpt>
      <trkpt lat="44.77345" lon="6.98452">
        <ele>1856.7</ele>
        <time>2015-07-20T06:26:01Z</time>
      </trkpt>
      <trkpt lat="44.77351" lon="6.98474">
        <ele>1860.4</ele>
        <time>2015-07-20T06:26:37Z</time>
      </trkpt>
      <trkpt lat="44.7735" lon="6.98487">
        <ele>1862.7</ele>
        <time>2015-07-20T06:26:51Z</time>
      </trkpt>
      <trkpt lat="44.77349" lon="6.98498">
        <ele>1863.3</ele>
        <time>2015-07-20T06:27:05Z</time>
      </trkpt>
      <trkpt lat="44.7735" lon="6.98499">
        <ele>1863.6</ele>
        <time>2015-07-20T06:27:06Z</time>
      </trkpt>
      <trkpt lat="44.77357" lon="6.9852">
        <ele>1869.2</ele>
        <time>2015-07-20T06:27:51Z</time>
      </trkpt>
      <trkpt lat="44.77361" lon="6.98531">
        <ele>1872.4</ele>
        <time>2015-07-20T06:28:11Z</time>
      </trkpt>
      <trkpt lat="44.77362" lon="6.98531">
        <ele>1872.7</ele>
        <time>2015-07-20T06:28:12Z</time>
      </trkpt>
      <trkpt lat="44.77372" lon="6.98547">
        <ele>1877</ele>
        <time>2015-07-20T06:28:48Z</time>
      </trkpt>
      <trkpt lat="44.77379" lon="6.98555">
        <ele>1879.6</ele>
        <time>2015-07-20T06:29:07Z</time>
      </trkpt>
      <trkpt lat="44.77386" lon="6.98561">
        <ele>1882.4</ele>
        <time>2015-07-20T06:29:27Z</time>
      </trkpt>
      <trkpt lat="44.77387" lon="6.98562">
        <ele>1882.4</ele>
        <time>2015-07-20T06:29:28Z</time>
      </trkpt>
      <trkpt lat="44.77389" lon="6.98585">
        <ele>1888.3</ele>
        <time>2015-07-20T06:30:12Z</time>
      </trkpt>
      <trkpt lat="44.77391" lon="6.98597">
        <ele>1891.3</ele>
        <time>2015-07-20T06:30:31Z</time>
      </trkpt>
      <trkpt lat="44.77391" lon="6.98597">
        <ele>1891.6</ele>
        <time>2015-07-20T06:30:32Z</time>
      </trkpt>
      <trkpt lat="44.77377" lon="6.98608">
        <ele>1893.5</ele>
        <time>2015-07-20T06:30:59Z</time>
      </trkpt>
      <trkpt lat="44.77378" lon="6.98621">
        <ele>1894.9</ele>
        <time>2015-07-20T06:31:15Z</time>
      </trkpt>
      <trkpt lat="44.77372" lon="6.98629">
        <ele>1897.3</ele>
        <time>2015-07-20T06:31:35Z</time>
      </trkpt>
      <trkpt lat="44.77371" lon="6.98629">
        <ele>1897.3</ele>
        <time>2015-07-20T06:31:36Z</time>
      </trkpt>
      <trkpt lat="44.7736" lon="6.98645">
        <ele>1900.8</ele>
        <time>2015-07-20T06:31:59Z</time>
      </trkpt>
      <trkpt lat="44.77356" lon="6.98657">
        <ele>1902.6</ele>
        <time>2015-07-20T06:32:18Z</time>
      </trkpt>
      <trkpt lat="44.77361" lon="6.98666">
        <ele>1905.3</ele>
        <time>2015-07-20T06:32:37Z</time>
      </trkpt>
      <trkpt lat="44.77361" lon="6.98667">
        <ele>1905.8</ele>
        <time>2015-07-20T06:32:38Z</time>
      </trkpt>
      <trkpt lat="44.77365" lon="6.98687">
        <ele>1912.2</ele>
        <time>2015-07-20T06:33:26Z</time>
      </trkpt>
      <trkpt lat="44.77362" lon="6.98698">
        <ele>1915.1</ele>
        <time>2015-07-20T06:33:42Z</time>
      </trkpt>
      <trkpt lat="44.77362" lon="6.98699">
        <ele>1915.8</ele>
        <time>2015-07-20T06:33:43Z</time>
      </trkpt>
      <trkpt lat="44.77365" lon="6.98715">
        <ele>1919.5</ele>
        <time>2015-07-20T06:34:27Z</time>
      </trkpt>
      <trkpt lat="44.77368" lon="6.98726">
        <ele>1922.5</ele>
        <time>2015-07-20T06:34:47Z</time>
      </trkpt>
      <trkpt lat="44.77368" lon="6.98726">
        <ele>1922.6</ele>
        <time>2015-07-20T06:34:48Z</time>
      </trkpt>
      <trkpt lat="44.77377" lon="6.98747">
        <ele>1927.5</ele>
        <time>2015-07-20T06:35:28Z</time>
      </trkpt>
      <trkpt lat="44.77382" lon="6.98756">
        <ele>1930.8</ele>
        <time>2015-07-20T06:35:49Z</time>
      </trkpt>
      <trkpt lat="44.77383" lon="6.98757">
        <ele>1931</ele>
        <time>2015-07-20T06:35:50Z</time>
      </trkpt>
      <trkpt lat="44.77393" lon="6.98775">
        <ele>1934.8</ele>
        <time>2015-07-20T06:36:19Z</time>
      </trkpt>
      <trkpt lat="44.77386" lon="6.98783">
        <ele>1937.6</ele>
        <time>2015-07-20T06:36:38Z</time>
      </trkpt>
      <trkpt lat="44.77379" lon="6.98787">
        <ele>1939.5</ele>
        <time>2015-07-20T06:36:53Z</time>
      </trkpt>
      <trkpt lat="44.77378" lon="6.98788">
        <ele>1939.7</ele>
        <time>2015-07-20T06:36:54Z</time>
      </trkpt>
      <trkpt lat="44.77377" lon="6.98807">
        <ele>1944.2</ele>
        <time>2015-07-20T06:37:33Z</time>
      </trkpt>
      <trkpt lat="44.77379" lon="6.98819">
        <ele>1948.9</ele>
        <time>2015-07-20T06:38:02Z</time>
      </trkpt>
      <trkpt lat="44.77379" lon="6.9882">
        <ele>1949.1</ele>
        <time>2015-07-20T06:38:03Z</time>
      </trkpt>
      <trkpt lat="44.77372" lon="6.98841">
        <ele>1951.7</ele>
        <time>2015-07-20T06:38:42Z</time>
      </trkpt>
      <trkpt lat="44.77375" lon="6.98853">
        <ele>1957</ele>
        <time>2015-07-20T06:39:19Z</time>
      </trkpt>
      <trkpt lat="44.77375" lon="6.98853">
        <ele>1957.4</ele>
        <time>2015-07-20T06:39:20Z</time>
      </trkpt>
      <trkpt lat="44.77372" lon="6.98878">
        <ele>1960.9</ele>
        <time>2015-07-20T06:40:08Z</time>
      </trkpt>
      <trkpt lat="44.77378" lon="6.98887">
        <ele>1963</ele>
        <time>2015-07-20T06:40:27Z</time>
      </trkpt>
      <trkpt lat="44.77378" lon="6.98888">
        <ele>1963.4</ele>
        <time>2015-07-20T06:40:28Z</time>
      </trkpt>
      <trkpt lat="44.77388" lon="6.98906">
        <ele>1969.2</ele>
        <time>2015-07-20T06:41:05Z</time>
      </trkpt>
      <trkpt lat="44.7739" lon="6.98918">
        <ele>1971.4</ele>
        <time>2015-07-20T06:41:25Z</time>
      </trkpt>
      <trkpt lat="44.77393" lon="6.9893">
        <ele>1974.2</ele>
        <time>2015-07-20T06:41:54Z</time>
      </trkpt>
      <trkpt lat="44.77393" lon="6.98931">
        <ele>1974.1</ele>
        <time>2015-07-20T06:41:55Z</time>
      </trkpt>
      <trkpt lat="44.774" lon="6.98953">
        <ele>1980.8</ele>
        <time>2015-07-20T06:42:29Z</time>
      </trkpt>
      <trkpt lat="44.77401" lon="6.98965">
        <ele>1982.5</ele>
        <time>2015-07-20T06:42:45Z</time>
      </trkpt>
      <trkpt lat="44.77404" lon="6.98977">
        <ele>1984</ele>
        <time>2015-07-20T06:43:01Z</time>
      </trkpt>
      <trkpt lat="44.77404" lon="6.98977">
        <ele>1984.1</ele>
        <time>2015-07-20T06:43:02Z</time>
      </trkpt>
      <trkpt lat="44.77414" lon="6.98996">
        <ele>1988.4</ele>
        <time>2015-07-20T06:43:30Z</time>
      </trkpt>
      <trkpt lat="44.77419" lon="6.99005">
        <ele>1989.4</ele>
        <time>2015-07-20T06:43:43Z</time>
      </trkpt>
      <trkpt lat="44.77426" lon="6.99012">
        <ele>1991.1</ele>
        <time>2015-07-20T06:43:55Z</time>
      </trkpt>
      <trkpt lat="44.77433" lon="6.9902">
        <ele>1992.8</ele>
        <time>2015-07-20T06:44:07Z</time>
      </trkpt>
      <trkpt lat="44.77434" lon="6.99021">
        <ele>1993.1</ele>
        <time>2015-07-20T06:44:08Z</time>
      </trkpt>
      <trkpt lat="44.77442" lon="6.99042">
        <ele>1997.2</ele>
        <time>2015-07-20T06:44:38Z</time>
      </trkpt>
      <trkpt lat="44.77445" lon="6.99053">
        <ele>1999.5</ele>
        <time>2015-07-20T06:44:53Z</time>
      </trkpt>
      <trkpt lat="44.77451" lon="6.99063">
        <ele>2002.1</ele>
        <time>2015-07-20T06:45:13Z</time>
      </trkpt>
      <trkpt lat="44.77451" lon="6.99063">
        <ele>2002.1</ele>
        <time>2015-07-20T06:45:14Z</time>
      </trkpt>
      <trkpt lat="44.77465" lon="6.99076">
        <ele>2007.5</ele>
        <time>2015-07-20T06:45:57Z</time>
      </trkpt>
      <trkpt lat="44.77473" lon="6.9908">
        <ele>2009.9</ele>
        <time>2015-07-20T06:46:12Z</time>
      </trkpt>
      <trkpt lat="44.7748" lon="6.99088">
        <ele>2013.7</ele>
        <time>2015-07-20T06:46:34Z</time>
      </trkpt>
      <trkpt lat="44.7748" lon="6.99089">
        <ele>2013.7</ele>
        <time>2015-07-20T06:46:35Z</time>
      </trkpt>
      <trkpt lat="44.77493" lon="6.99103">
        <ele>2017.7</ele>
        <time>2015-07-20T06:47:14Z</time>
      </trkpt>
      <trkpt lat="44.77499" lon="6.99111">
        <ele>2021.2</ele>
        <time>2015-07-20T06:47:34Z</time>
      </trkpt>
      <trkpt lat="44.77504" lon="6.99121">
        <ele>2023.8</ele>
        <time>2015-07-20T06:47:46Z</time>
      </trkpt>
      <trkpt lat="44.77505" lon="6.99122">
        <ele>2024.1</ele>
        <time>2015-07-20T06:47:47Z</time>
      </trkpt>
      <trkpt lat="44.77518" lon="6.99136">
        <ele>2026.4</ele>
        <time>2015-07-20T06:48:10Z</time>
      </trkpt>
      <trkpt lat="44.77525" lon="6.99144">
        <ele>2028.9</ele>
        <time>2015-07-20T06:48:25Z</time>
      </trkpt>
      <trkpt lat="44.77531" lon="6.99152">
        <ele>2030.7</ele>
        <time>2015-07-20T06:49:01Z</time>
      </trkpt>
      <trkpt lat="44.77532" lon="6.99153">
        <ele>2031</ele>
        <time>2015-07-20T06:49:02Z</time>
      </trkpt>
      <trkpt lat="44.77543" lon="6.99148">
        <ele>2036.9</ele>
        <time>2015-07-20T06:50:09Z</time>
      </trkpt>
      <trkpt lat="44.77543" lon="6.99148">
        <ele>2037</ele>
        <time>2015-07-20T06:50:10Z</time>
      </trkpt>
      <trkpt lat="44.77558" lon="6.99138">
        <ele>2040.6</ele>
        <time>2015-07-20T06:51:20Z</time>
      </trkpt>
      <trkpt lat="44.77559" lon="6.99138">
        <ele>2040.8</ele>
        <time>2015-07-20T06:51:21Z</time>
      </trkpt>
      <trkpt lat="44.77572" lon="6.99123">
        <ele>2051.4</ele>
        <time>2015-07-20T06:52:22Z</time>
      </trkpt>
      <trkpt lat="44.77573" lon="6.99123">
        <ele>2051.1</ele>
        <time>2015-07-20T06:52:23Z</time>
      </trkpt>
      <trkpt lat="44.77578" lon="6.991">
        <ele>2055.5</ele>
        <time>2015-07-20T06:52:53Z</time>
      </trkpt>
      <trkpt lat="44.77585" lon="6.99095">
        <ele>2058.3</ele>
        <time>2015-07-20T06:53:13Z</time>
      </trkpt>
      <trkpt lat="44.77593" lon="6.9909">
        <ele>2060.8</ele>
        <time>2015-07-20T06:53:32Z</time>
      </trkpt>
      <trkpt lat="44.77594" lon="6.99089">
        <ele>2061.1</ele>
        <time>2015-07-20T06:53:33Z</time>
      </trkpt>
      <trkpt lat="44.77604" lon="6.99071">
        <ele>2063.4</ele>
        <time>2015-07-20T06:53:57Z</time>
      </trkpt>
      <trkpt lat="44.7761" lon="6.99063">
        <ele>2065.5</ele>
        <time>2015-07-20T06:54:10Z</time>
      </trkpt>
      <trkpt lat="44.77618" lon="6.9906">
        <ele>2067.7</ele>
        <time>2015-07-20T06:54:36Z</time>
      </trkpt>
      <trkpt lat="44.77619" lon="6.9906">
        <ele>2067.7</ele>
        <time>2015-07-20T06:54:37Z</time>
      </trkpt>
      <trkpt lat="44.77634" lon="6.9905">
        <ele>2070.2</ele>
        <time>2015-07-20T06:55:34Z</time>
      </trkpt>
      <trkpt lat="44.77641" lon="6.99043">
        <ele>2071.6</ele>
        <time>2015-07-20T06:55:47Z</time>
      </trkpt>
      <trkpt lat="44.77641" lon="6.99043">
        <ele>2071.8</ele>
        <time>2015-07-20T06:55:48Z</time>
      </trkpt>
      <trkpt lat="44.77657" lon="6.99047">
        <ele>2076.7</ele>
        <time>2015-07-20T06:56:30Z</time>
      </trkpt>
      <trkpt lat="44.7766" lon="6.99058">
        <ele>2078.6</ele>
        <time>2015-07-20T06:56:43Z</time>
      </trkpt>
      <trkpt lat="44.77663" lon="6.9907">
        <ele>2081.2</ele>
        <time>2015-07-20T06:56:57Z</time>
      </trkpt>
      <trkpt lat="44.77663" lon="6.99071">
        <ele>2081</ele>
        <time>2015-07-20T06:56:58Z</time>
      </trkpt>
      <trkpt lat="44.77678" lon="6.99079">
        <ele>2084.3</ele>
        <time>2015-07-20T06:57:26Z</time>
      </trkpt>
      <trkpt lat="44.77687" lon="6.99077">
        <ele>2087.3</ele>
        <time>2015-07-20T06:57:44Z</time>
      </trkpt>
      <trkpt lat="44.77696" lon="6.99076">
        <ele>2087.1</ele>
        <time>2015-07-20T06:57:58Z</time>
      </trkpt>
      <trkpt lat="44.77696" lon="6.99075">
        <ele>2086.9</ele>
        <time>2015-07-20T06:57:59Z</time>
      </trkpt>
      <trkpt lat="44.77711" lon="6.99076">
        <ele>2091.2</ele>
        <time>2015-07-20T06:58:22Z</time>
      </trkpt>
      <trkpt lat="44.7772" lon="6.99078">
        <ele>2092.7</ele>
        <time>2015-07-20T06:58:34Z</time>
      </trkpt>
      <trkpt lat="44.77726" lon="6.9907">
        <ele>2093.1</ele>
        <time>2015-07-20T06:59:02Z</time>
      </trkpt>
      <trkpt lat="44.77727" lon="6.99069">
        <ele>2093.2</ele>
        <time>2015-07-20T06:59:03Z</time>
      </trkpt>
      <trkpt lat="44.77744" lon="6.99066">
        <ele>2096</ele>
        <time>2015-07-20T06:59:30Z</time>
      </trkpt>
      <trkpt lat="44.77752" lon="6.99065">
        <ele>2098.7</ele>
        <time>2015-07-20T06:59:41Z</time>
      </trkpt>
      <trkpt lat="44.7776" lon="6.99062">
        <ele>2098.7</ele>
        <time>2015-07-20T06:59:51Z</time>
      </trkpt>
      <trkpt lat="44.77768" lon="6.99057">
        <ele>2098.7</ele>
        <time>2015-07-20T07:00:00Z</time>
      </trkpt>
      <trkpt lat="44.77774" lon="6.99048">
        <ele>2098</ele>
        <time>2015-07-20T07:00:14Z</time>
      </trkpt>
      <trkpt lat="44.77774" lon="6.99047">
        <ele>2098.4</ele>
        <time>2015-07-20T07:00:15Z</time>
      </trkpt>
      <trkpt lat="44.77788" lon="6.99034">
        <ele>2107.8</ele>
        <time>2015-07-20T07:00:35Z</time>
      </trkpt>
      <trkpt lat="44.77794" lon="6.99025">
        <ele>2117.4</ele>
        <time>2015-07-20T07:00:45Z</time>
      </trkpt>
      <trkpt lat="44.778" lon="6.99019">
        <ele>2117.9</ele>
        <time>2015-07-20T07:00:53Z</time>
      </trkpt>
      <trkpt lat="44.77807" lon="6.99011">
        <ele>2118.7</ele>
        <time>2015-07-20T07:01:02Z</time>
      </trkpt>
      <trkpt lat="44.77814" lon="6.99004">
        <ele>2118</ele>
        <time>2015-07-20T07:01:12Z</time>
      </trkpt>
      <trkpt lat="44.77822" lon="6.98998">
        <ele>2119.6</ele>
        <time>2015-07-20T07:01:23Z</time>
      </trkpt>
      <trkpt lat="44.77822" lon="6.98998">
        <ele>2119.8</ele>
        <time>2015-07-20T07:01:24Z</time>
      </trkpt>
      <trkpt lat="44.77839" lon="6.98994">
        <ele>2124.6</ele>
        <time>2015-07-20T07:02:04Z</time>
      </trkpt>
      <trkpt lat="44.77847" lon="6.9899">
        <ele>2129.1</ele>
        <time>2015-07-20T07:02:27Z</time>
      </trkpt>
      <trkpt lat="44.77848" lon="6.9899">
        <ele>2129.2</ele>
        <time>2015-07-20T07:02:28Z</time>
      </trkpt>
      <trkpt lat="44.77865" lon="6.98991">
        <ele>2132.9</ele>
        <time>2015-07-20T07:03:09Z</time>
      </trkpt>
      <trkpt lat="44.77873" lon="6.98997">
        <ele>2141.3</ele>
        <time>2015-07-20T07:04:14Z</time>
      </trkpt>
      <trkpt lat="44.77873" lon="6.98996">
        <ele>2141.6</ele>
        <time>2015-07-20T07:04:15Z</time>
      </trkpt>
      <trkpt lat="44.77889" lon="6.99004">
        <ele>2148.9</ele>
        <time>2015-07-20T07:05:15Z</time>
      </trkpt>
      <trkpt lat="44.77889" lon="6.99004">
        <ele>2148.8</ele>
        <time>2015-07-20T07:05:16Z</time>
      </trkpt>
      <trkpt lat="44.77901" lon="6.99012">
        <ele>2156.1</ele>
        <time>2015-07-20T07:06:14Z</time>
      </trkpt>
      <trkpt lat="44.77907" lon="6.99021">
        <ele>2160.4</ele>
        <time>2015-07-20T07:06:45Z</time>
      </trkpt>
      <trkpt lat="44.77907" lon="6.99021">
        <ele>2160.5</ele>
        <time>2015-07-20T07:06:46Z</time>
      </trkpt>
      <trkpt lat="44.77919" lon="6.99039">
        <ele>2168.6</ele>
        <time>2015-07-20T07:07:51Z</time>
      </trkpt>
      <trkpt lat="44.77919" lon="6.9904">
        <ele>2168.5</ele>
        <time>2015-07-20T07:07:52Z</time>
      </trkpt>
      <trkpt lat="44.77918" lon="6.99063">
        <ele>2173</ele>
        <time>2015-07-20T07:08:29Z</time>
      </trkpt>
      <trkpt lat="44.77921" lon="6.99075">
        <ele>2175.3</ele>
        <time>2015-07-20T07:09:07Z</time>
      </trkpt>
      <trkpt lat="44.77922" lon="6.99075">
        <ele>2175.7</ele>
        <time>2015-07-20T07:09:08Z</time>
      </trkpt>
      <trkpt lat="44.77937" lon="6.99086">
        <ele>2185.4</ele>
        <time>2015-07-20T07:10:07Z</time>
      </trkpt>
      <trkpt lat="44.77945" lon="6.9909">
        <ele>2187.8</ele>
        <time>2015-07-20T07:10:24Z</time>
      </trkpt>
      <trkpt lat="44.77945" lon="6.9909">
        <ele>2187.7</ele>
        <time>2015-07-20T07:10:25Z</time>
      </trkpt>
      <trkpt lat="44.77962" lon="6.99094">
        <ele>2194</ele>
        <time>2015-07-20T07:11:15Z</time>
      </trkpt>
      <trkpt lat="44.7797" lon="6.99089">
        <ele>2195.8</ele>
        <time>2015-07-20T07:11:34Z</time>
      </trkpt>
      <trkpt lat="44.7797" lon="6.99088">
        <ele>2196.2</ele>
        <time>2015-07-20T07:11:35Z</time>
      </trkpt>
      <trkpt lat="44.77984" lon="6.99074">
        <ele>2200.9</ele>
        <time>2015-07-20T07:12:19Z</time>
      </trkpt>
      <trkpt lat="44.7799" lon="6.99065">
        <ele>2203</ele>
        <time>2015-07-20T07:12:44Z</time>
      </trkpt>
      <trkpt lat="44.7799" lon="6.99065">
        <ele>2203.1</ele>
        <time>2015-07-20T07:12:45Z</time>
      </trkpt>
      <trkpt lat="44.78003" lon="6.99081">
        <ele>2210.7</ele>
        <time>2015-07-20T07:13:58Z</time>
      </trkpt>
      <trkpt lat="44.78003" lon="6.99081">
        <ele>2211</ele>
        <time>2015-07-20T07:13:59Z</time>
      </trkpt>
      <trkpt lat="44.78007" lon="6.99103">
        <ele>2216.8</ele>
        <time>2015-07-20T07:15:10Z</time>
      </trkpt>
      <trkpt lat="44.78007" lon="6.99104">
        <ele>2216.5</ele>
        <time>2015-07-20T07:15:11Z</time>
      </trkpt>
      <trkpt lat="44.78021" lon="6.99099">
        <ele>2223.6</ele>
        <time>2015-07-20T07:16:10Z</time>
      </trkpt>
      <trkpt lat="44.78025" lon="6.99111">
        <ele>2227.7</ele>
        <time>2015-07-20T07:16:44Z</time>
      </trkpt>
      <trkpt lat="44.78025" lon="6.99111">
        <ele>2227.7</ele>
        <time>2015-07-20T07:16:45Z</time>
      </trkpt>
      <trkpt lat="44.78035" lon="6.99092">
        <ele>2232.5</ele>
        <time>2015-07-20T07:17:31Z</time>
      </trkpt>
      <trkpt lat="44.78042" lon="6.99084">
        <ele>2235.1</ele>
        <time>2015-07-20T07:17:52Z</time>
      </trkpt>
      <trkpt lat="44.78042" lon="6.99084">
        <ele>2234.9</ele>
        <time>2015-07-20T07:17:53Z</time>
      </trkpt>
      <trkpt lat="44.78056" lon="6.99082">
        <ele>2241.3</ele>
        <time>2015-07-20T07:18:43Z</time>
      </trkpt>
      <trkpt lat="44.7806" lon="6.99093">
        <ele>2245.9</ele>
        <time>2015-07-20T07:19:03Z</time>
      </trkpt>
      <trkpt lat="44.7806" lon="6.99093">
        <ele>2245.7</ele>
        <time>2015-07-20T07:19:04Z</time>
      </trkpt>
      <trkpt lat="44.78061" lon="6.99116">
        <ele>2248.1</ele>
        <time>2015-07-20T07:19:35Z</time>
      </trkpt>
      <trkpt lat="44.78059" lon="6.99128">
        <ele>2248.3</ele>
        <time>2015-07-20T07:19:46Z</time>
      </trkpt>
      <trkpt lat="44.78067" lon="6.99135">
        <ele>2250.5</ele>
        <time>2015-07-20T07:20:07Z</time>
      </trkpt>
      <trkpt lat="44.78067" lon="6.99135">
        <ele>2251</ele>
        <time>2015-07-20T07:20:08Z</time>
      </trkpt>
      <trkpt lat="44.7808" lon="6.99119">
        <ele>2254.6</ele>
        <time>2015-07-20T07:20:38Z</time>
      </trkpt>
      <trkpt lat="44.78086" lon="6.99111">
        <ele>2254.9</ele>
        <time>2015-07-20T07:20:59Z</time>
      </trkpt>
      <trkpt lat="44.78094" lon="6.99105">
        <ele>2258</ele>
        <time>2015-07-20T07:21:22Z</time>
      </trkpt>
      <trkpt lat="44.78094" lon="6.99104">
        <ele>2258.2</ele>
        <time>2015-07-20T07:21:23Z</time>
      </trkpt>
      <trkpt lat="44.78111" lon="6.991">
        <ele>2264.7</ele>
        <time>2015-07-20T07:22:16Z</time>
      </trkpt>
      <trkpt lat="44.78119" lon="6.99095">
        <ele>2268.7</ele>
        <time>2015-07-20T07:22:43Z</time>
      </trkpt>
      <trkpt lat="44.78119" lon="6.99095">
        <ele>2268.8</ele>
        <time>2015-07-20T07:22:44Z</time>
      </trkpt>
      <trkpt lat="44.78135" lon="6.99085">
        <ele>2274.4</ele>
        <time>2015-07-20T07:23:45Z</time>
      </trkpt>
      <trkpt lat="44.78135" lon="6.99085">
        <ele>2274.8</ele>
        <time>2015-07-20T07:23:46Z</time>
      </trkpt>
      <trkpt lat="44.78148" lon="6.9907">
        <ele>2281</ele>
        <time>2015-07-20T07:24:32Z</time>
      </trkpt>
      <trkpt lat="44.78154" lon="6.99061">
        <ele>2281.6</ele>
        <time>2015-07-20T07:24:48Z</time>
      </trkpt>
      <trkpt lat="44.78154" lon="6.9906">
        <ele>2282</ele>
        <time>2015-07-20T07:24:49Z</time>
      </trkpt>
      <trkpt lat="44.78169" lon="6.9905">
        <ele>2285.7</ele>
        <time>2015-07-20T07:25:22Z</time>
      </trkpt>
      <trkpt lat="44.7817" lon="6.99062">
        <ele>2287.4</ele>
        <time>2015-07-20T07:25:36Z</time>
      </trkpt>
      <trkpt lat="44.78171" lon="6.99075">
        <ele>2289</ele>
        <time>2015-07-20T07:25:49Z</time>
      </trkpt>
      <trkpt lat="44.78171" lon="6.99076">
        <ele>2289.1</ele>
        <time>2015-07-20T07:25:50Z</time>
      </trkpt>
      <trkpt lat="44.7818" lon="6.99086">
        <ele>2293.1</ele>
        <time>2015-07-20T07:26:32Z</time>
      </trkpt>
      <trkpt lat="44.78185" lon="6.99077">
        <ele>2295.7</ele>
        <time>2015-07-20T07:26:56Z</time>
      </trkpt>
      <trkpt lat="44.78185" lon="6.99076">
        <ele>2295.9</ele>
        <time>2015-07-20T07:26:57Z</time>
      </trkpt>
      <trkpt lat="44.78198" lon="6.99061">
        <ele>2300.2</ele>
        <time>2015-07-20T07:27:24Z</time>
      </trkpt>
      <trkpt lat="44.78204" lon="6.99052">
        <ele>2302.5</ele>
        <time>2015-07-20T07:27:43Z</time>
      </trkpt>
      <trkpt lat="44.78211" lon="6.99044">
        <ele>2304.9</ele>
        <time>2015-07-20T07:28:12Z</time>
      </trkpt>
      <trkpt lat="44.78212" lon="6.99045">
        <ele>2305.2</ele>
        <time>2015-07-20T07:28:13Z</time>
      </trkpt>
      <trkpt lat="44.7822" lon="6.99066">
        <ele>2310</ele>
        <time>2015-07-20T07:28:49Z</time>
      </trkpt>
      <trkpt lat="44.78223" lon="6.99077">
        <ele>2311.9</ele>
        <time>2015-07-20T07:29:03Z</time>
      </trkpt>
      <trkpt lat="44.78224" lon="6.99089">
        <ele>2312.9</ele>
        <time>2015-07-20T07:29:16Z</time>
      </trkpt>
      <trkpt lat="44.78224" lon="6.9909">
        <ele>2313.1</ele>
        <time>2015-07-20T07:29:17Z</time>
      </trkpt>
      <trkpt lat="44.78225" lon="6.99114">
        <ele>2314.2</ele>
        <time>2015-07-20T07:29:48Z</time>
      </trkpt>
      <trkpt lat="44.78233" lon="6.99109">
        <ele>2316.8</ele>
        <time>2015-07-20T07:30:03Z</time>
      </trkpt>
      <trkpt lat="44.7824" lon="6.99101">
        <ele>2318.4</ele>
        <time>2015-07-20T07:30:15Z</time>
      </trkpt>
      <trkpt lat="44.78244" lon="6.99089">
        <ele>2321.1</ele>
        <time>2015-07-20T07:30:46Z</time>
      </trkpt>
      <trkpt lat="44.78244" lon="6.99088">
        <ele>2320.9</ele>
        <time>2015-07-20T07:30:47Z</time>
      </trkpt>
      <trkpt lat="44.78258" lon="6.99096">
        <ele>2326.9</ele>
        <time>2015-07-20T07:31:32Z</time>
      </trkpt>
      <trkpt lat="44.78264" lon="6.99105">
        <ele>2329.6</ele>
        <time>2015-07-20T07:31:56Z</time>
      </trkpt>
      <trkpt lat="44.78265" lon="6.99105">
        <ele>2329</ele>
        <time>2015-07-20T07:31:57Z</time>
      </trkpt>
      <trkpt lat="44.78275" lon="6.99093">
        <ele>2332.5</ele>
        <time>2015-07-20T07:33:41Z</time>
      </trkpt>
      <trkpt lat="44.78276" lon="6.99092">
        <ele>2332.7</ele>
        <time>2015-07-20T07:33:42Z</time>
      </trkpt>
      <trkpt lat="44.78286" lon="6.99074">
        <ele>2337.9</ele>
        <time>2015-07-20T07:34:07Z</time>
      </trkpt>
      <trkpt lat="44.78291" lon="6.99063">
        <ele>2338.5</ele>
        <time>2015-07-20T07:34:17Z</time>
      </trkpt>
      <trkpt lat="44.78295" lon="6.99052">
        <ele>2338.3</ele>
        <time>2015-07-20T07:34:27Z</time>
      </trkpt>
      <trkpt lat="44.78297" lon="6.9904">
        <ele>2341.1</ele>
        <time>2015-07-20T07:34:42Z</time>
      </trkpt>
      <trkpt lat="44.78299" lon="6.99028">
        <ele>2342.6</ele>
        <time>2015-07-20T07:34:59Z</time>
      </trkpt>
      <trkpt lat="44.783" lon="6.99027">
        <ele>2342.6</ele>
        <time>2015-07-20T07:35:00Z</time>
      </trkpt>
      <trkpt lat="44.783" lon="6.99004">
        <ele>2345</ele>
        <time>2015-07-20T07:35:28Z</time>
      </trkpt>
      <trkpt lat="44.78303" lon="6.98992">
        <ele>2345.8</ele>
        <time>2015-07-20T07:35:46Z</time>
      </trkpt>
      <trkpt lat="44.78308" lon="6.98981">
        <ele>2347.7</ele>
        <time>2015-07-20T07:36:02Z</time>
      </trkpt>
      <trkpt lat="44.78308" lon="6.98981">
        <ele>2347.5</ele>
        <time>2015-07-20T07:36:03Z</time>
      </trkpt>
      <trkpt lat="44.78322" lon="6.98976">
        <ele>2354</ele>
        <time>2015-07-20T07:36:46Z</time>
      </trkpt>
      <trkpt lat="44.78326" lon="6.98965">
        <ele>2354.4</ele>
        <time>2015-07-20T07:37:03Z</time>
      </trkpt>
      <trkpt lat="44.78328" lon="6.98954">
        <ele>2358.6</ele>
        <time>2015-07-20T07:37:22Z</time>
      </trkpt>
      <trkpt lat="44.78328" lon="6.98953">
        <ele>2359</ele>
        <time>2015-07-20T07:37:23Z</time>
      </trkpt>
      <trkpt lat="44.78331" lon="6.9893">
        <ele>2363</ele>
        <time>2015-07-20T07:38:01Z</time>
      </trkpt>
      <trkpt lat="44.78334" lon="6.98918">
        <ele>2364</ele>
        <time>2015-07-20T07:38:20Z</time>
      </trkpt>
      <trkpt lat="44.78334" lon="6.98905">
        <ele>2368</ele>
        <time>2015-07-20T07:38:37Z</time>
      </trkpt>
      <trkpt lat="44.78334" lon="6.98904">
        <ele>2368</ele>
        <time>2015-07-20T07:38:38Z</time>
      </trkpt>
      <trkpt lat="44.78341" lon="6.98883">
        <ele>2372.3</ele>
        <time>2015-07-20T07:39:09Z</time>
      </trkpt>
      <trkpt lat="44.78349" lon="6.98882">
        <ele>2375.2</ele>
        <time>2015-07-20T07:39:39Z</time>
      </trkpt>
      <trkpt lat="44.7835" lon="6.98883">
        <ele>2375.9</ele>
        <time>2015-07-20T07:39:40Z</time>
      </trkpt>
      <trkpt lat="44.78357" lon="6.98903">
        <ele>2379.5</ele>
        <time>2015-07-20T07:40:41Z</time>
      </trkpt>
      <trkpt lat="44.78364" lon="6.98897">
        <ele>2382</ele>
        <time>2015-07-20T07:40:56Z</time>
      </trkpt>
      <trkpt lat="44.78364" lon="6.98895">
        <ele>2382.1</ele>
        <time>2015-07-20T07:40:57Z</time>
      </trkpt>
      <trkpt lat="44.7837" lon="6.98875">
        <ele>2385.2</ele>
        <time>2015-07-20T07:41:13Z</time>
      </trkpt>
      <trkpt lat="44.78375" lon="6.98865">
        <ele>2386.1</ele>
        <time>2015-07-20T07:41:23Z</time>
      </trkpt>
      <trkpt lat="44.78378" lon="6.98853">
        <ele>2389.6</ele>
        <time>2015-07-20T07:41:37Z</time>
      </trkpt>
      <trkpt lat="44.78379" lon="6.98841">
        <ele>2389.6</ele>
        <time>2015-07-20T07:41:52Z</time>
      </trkpt>
      <trkpt lat="44.78382" lon="6.98829">
        <ele>2393.8</ele>
        <time>2015-07-20T07:42:10Z</time>
      </trkpt>
      <trkpt lat="44.78386" lon="6.98819">
        <ele>2392.2</ele>
        <time>2015-07-20T07:42:23Z</time>
      </trkpt>
      <trkpt lat="44.78387" lon="6.98818">
        <ele>2392.1</ele>
        <time>2015-07-20T07:42:24Z</time>
      </trkpt>
      <trkpt lat="44.78396" lon="6.98798">
        <ele>2395.9</ele>
        <time>2015-07-20T07:42:46Z</time>
      </trkpt>
      <trkpt lat="44.78401" lon="6.98789">
        <ele>2395.3</ele>
        <time>2015-07-20T07:42:56Z</time>
      </trkpt>
      <trkpt lat="44.78403" lon="6.98778">
        <ele>2396.6</ele>
        <time>2015-07-20T07:43:04Z</time>
      </trkpt>
      <trkpt lat="44.78407" lon="6.98767">
        <ele>2396.6</ele>
        <time>2015-07-20T07:43:12Z</time>
      </trkpt>
      <trkpt lat="44.78412" lon="6.98757">
        <ele>2396.1</ele>
        <time>2015-07-20T07:43:19Z</time>
      </trkpt>
      <trkpt lat="44.78417" lon="6.98747">
        <ele>2395.1</ele>
        <time>2015-07-20T07:43:27Z</time>
      </trkpt>
      <trkpt lat="44.78418" lon="6.98746">
        <ele>2395</ele>
        <time>2015-07-20T07:43:28Z</time>
      </trkpt>
      <trkpt lat="44.78423" lon="6.98725">
        <ele>2396.3</ele>
        <time>2015-07-20T07:43:49Z</time>
      </trkpt>
      <trkpt lat="44.78424" lon="6.98712">
        <ele>2398.5</ele>
        <time>2015-07-20T07:44:13Z</time>
      </trkpt>
      <trkpt lat="44.78425" lon="6.98701">
        <ele>2398</ele>
        <time>2015-07-20T07:44:23Z</time>
      </trkpt>
      <trkpt lat="44.78427" lon="6.9869">
        <ele>2397.7</ele>
        <time>2015-07-20T07:44:32Z</time>
      </trkpt>
      <trkpt lat="44.78427" lon="6.98688">
        <ele>2398.2</ele>
        <time>2015-07-20T07:44:33Z</time>
      </trkpt>
      <trkpt lat="44.78429" lon="6.98665">
        <ele>2399.6</ele>
        <time>2015-07-20T07:44:54Z</time>
      </trkpt>
      <trkpt lat="44.78433" lon="6.98654">
        <ele>2400.3</ele>
        <time>2015-07-20T07:45:04Z</time>
      </trkpt>
      <trkpt lat="44.78434" lon="6.98642">
        <ele>2400.8</ele>
        <time>2015-07-20T07:45:14Z</time>
      </trkpt>
      <trkpt lat="44.78436" lon="6.98631">
        <ele>2403</ele>
        <time>2015-07-20T07:45:25Z</time>
      </trkpt>
      <trkpt lat="44.78439" lon="6.98619">
        <ele>2402.9</ele>
        <time>2015-07-20T07:45:35Z</time>
      </trkpt>
      <trkpt lat="44.78439" lon="6.98617">
        <ele>2403.1</ele>
        <time>2015-07-20T07:45:36Z</time>
      </trkpt>
      <trkpt lat="44.78445" lon="6.98597">
        <ele>2401.2</ele>
        <time>2015-07-20T07:45:53Z</time>
      </trkpt>
      <trkpt lat="44.78451" lon="6.98587">
        <ele>2399.7</ele>
        <time>2015-07-20T07:46:44Z</time>
      </trkpt>
      <trkpt lat="44.78451" lon="6.98587">
        <ele>2399.4</ele>
        <time>2015-07-20T07:46:45Z</time>
      </trkpt>
      <trkpt lat="44.78455" lon="6.98575">
        <ele>2399.8</ele>
        <time>2015-07-20T07:48:27Z</time>
      </trkpt>
      <trkpt lat="44.78465" lon="6.98556">
        <ele>2397</ele>
        <time>2015-07-20T07:48:40Z</time>
      </trkpt>
      <trkpt lat="44.7847" lon="6.98545">
        <ele>2396.9</ele>
        <time>2015-07-20T07:48:48Z</time>
      </trkpt>
      <trkpt lat="44.78473" lon="6.98534">
        <ele>2398</ele>
        <time>2015-07-20T07:58:43Z</time>
      </trkpt>
      <trkpt lat="44.78473" lon="6.98533">
        <ele>2398.1</ele>
        <time>2015-07-20T07:58:44Z</time>
      </trkpt>
      <trkpt lat="44.78485" lon="6.98517">
        <ele>2397.7</ele>
        <time>2015-07-20T07:59:02Z</time>
      </trkpt>
      <trkpt lat="44.78492" lon="6.9851">
        <ele>2396.8</ele>
        <time>2015-07-20T07:59:13Z</time>
      </trkpt>
      <trkpt lat="44.78499" lon="6.98502">
        <ele>2396.7</ele>
        <time>2015-07-20T07:59:21Z</time>
      </trkpt>
      <trkpt lat="44.78504" lon="6.98493">
        <ele>2395.6</ele>
        <time>2015-07-20T07:59:29Z</time>
      </trkpt>
      <trkpt lat="44.78506" lon="6.98482">
        <ele>2394.4</ele>
        <time>2015-07-20T07:59:36Z</time>
      </trkpt>
      <trkpt lat="44.78509" lon="6.98471">
        <ele>2393.5</ele>
        <time>2015-07-20T07:59:43Z</time>
      </trkpt>
      <trkpt lat="44.78514" lon="6.98461">
        <ele>2392.3</ele>
        <time>2015-07-20T07:59:51Z</time>
      </trkpt>
      <trkpt lat="44.78515" lon="6.9846">
        <ele>2392.5</ele>
        <time>2015-07-20T07:59:52Z</time>
      </trkpt>
      <trkpt lat="44.78526" lon="6.98444">
        <ele>2395.7</ele>
        <time>2015-07-20T08:00:13Z</time>
      </trkpt>
      <trkpt lat="44.78532" lon="6.98435">
        <ele>2398.4</ele>
        <time>2015-07-20T08:00:25Z</time>
      </trkpt>
      <trkpt lat="44.7854" lon="6.9843">
        <ele>2397.4</ele>
        <time>2015-07-20T08:00:36Z</time>
      </trkpt>
      <trkpt lat="44.78548" lon="6.98431">
        <ele>2399.6</ele>
        <time>2015-07-20T08:00:45Z</time>
      </trkpt>
      <trkpt lat="44.78557" lon="6.9843">
        <ele>2399</ele>
        <time>2015-07-20T08:00:54Z</time>
      </trkpt>
      <trkpt lat="44.78558" lon="6.9843">
        <ele>2399</ele>
        <time>2015-07-20T08:00:55Z</time>
      </trkpt>
      <trkpt lat="44.78573" lon="6.98424">
        <ele>2399.8</ele>
        <time>2015-07-20T08:01:17Z</time>
      </trkpt>
      <trkpt lat="44.78579" lon="6.98414">
        <ele>2400.7</ele>
        <time>2015-07-20T08:01:56Z</time>
      </trkpt>
      <trkpt lat="44.7858" lon="6.98414">
        <ele>2401.2</ele>
        <time>2015-07-20T08:01:57Z</time>
      </trkpt>
      <trkpt lat="44.78596" lon="6.98415">
        <ele>2404.5</ele>
        <time>2015-07-20T08:02:16Z</time>
      </trkpt>
      <trkpt lat="44.78604" lon="6.98412">
        <ele>2405.4</ele>
        <time>2015-07-20T08:02:27Z</time>
      </trkpt>
      <trkpt lat="44.78613" lon="6.98409">
        <ele>2407.4</ele>
        <time>2015-07-20T08:02:43Z</time>
      </trkpt>
      <trkpt lat="44.7862" lon="6.98405">
        <ele>2407.7</ele>
        <time>2015-07-20T08:02:50Z</time>
      </trkpt>
      <trkpt lat="44.78627" lon="6.98399">
        <ele>2408.3</ele>
        <time>2015-07-20T08:02:57Z</time>
      </trkpt>
      <trkpt lat="44.78628" lon="6.98398">
        <ele>2408</ele>
        <time>2015-07-20T08:02:58Z</time>
      </trkpt>
      <trkpt lat="44.78642" lon="6.98386">
        <ele>2408.3</ele>
        <time>2015-07-20T08:03:12Z</time>
      </trkpt>
      <trkpt lat="44.7865" lon="6.98381">
        <ele>2409.4</ele>
        <time>2015-07-20T08:03:20Z</time>
      </trkpt>
      <trkpt lat="44.78658" lon="6.9838">
        <ele>2410.4</ele>
        <time>2015-07-20T08:03:28Z</time>
      </trkpt>
      <trkpt lat="44.78667" lon="6.98383">
        <ele>2413.4</ele>
        <time>2015-07-20T08:03:40Z</time>
      </trkpt>
      <trkpt lat="44.78664" lon="6.98395">
        <ele>2416.2</ele>
        <time>2015-07-20T08:03:55Z</time>
      </trkpt>
      <trkpt lat="44.78662" lon="6.98407">
        <ele>2416.7</ele>
        <time>2015-07-20T08:04:08Z</time>
      </trkpt>
      <trkpt lat="44.78662" lon="6.98407">
        <ele>2416.8</ele>
        <time>2015-07-20T08:04:09Z</time>
      </trkpt>
      <trkpt lat="44.78678" lon="6.98414">
        <ele>2422</ele>
        <time>2015-07-20T08:04:42Z</time>
      </trkpt>
      <trkpt lat="44.78687" lon="6.98415">
        <ele>2423.6</ele>
        <time>2015-07-20T08:04:58Z</time>
      </trkpt>
      <trkpt lat="44.78695" lon="6.9841">
        <ele>2427.1</ele>
        <time>2015-07-20T08:05:18Z</time>
      </trkpt>
      <trkpt lat="44.78695" lon="6.9841">
        <ele>2427.3</ele>
        <time>2015-07-20T08:05:19Z</time>
      </trkpt>
      <trkpt lat="44.78711" lon="6.98399">
        <ele>2431.2</ele>
        <time>2015-07-20T08:05:53Z</time>
      </trkpt>
      <trkpt lat="44.78718" lon="6.98392">
        <ele>2434.9</ele>
        <time>2015-07-20T08:06:10Z</time>
      </trkpt>
      <trkpt lat="44.78724" lon="6.98383">
        <ele>2435.9</ele>
        <time>2015-07-20T08:06:24Z</time>
      </trkpt>
      <trkpt lat="44.78725" lon="6.98383">
        <ele>2436.3</ele>
        <time>2015-07-20T08:06:25Z</time>
      </trkpt>
      <trkpt lat="44.78738" lon="6.98389">
        <ele>2441.2</ele>
        <time>2015-07-20T08:07:06Z</time>
      </trkpt>
      <trkpt lat="44.78746" lon="6.98393">
        <ele>2444.6</ele>
        <time>2015-07-20T08:07:28Z</time>
      </trkpt>
      <trkpt lat="44.78746" lon="6.98393">
        <ele>2444.5</ele>
        <time>2015-07-20T08:07:29Z</time>
      </trkpt>
      <trkpt lat="44.78753" lon="6.98412">
        <ele>2451.9</ele>
        <time>2015-07-20T08:08:26Z</time>
      </trkpt>
      <trkpt lat="44.78757" lon="6.98423">
        <ele>2453.8</ele>
        <time>2015-07-20T08:08:42Z</time>
      </trkpt>
      <trkpt lat="44.78757" lon="6.98423">
        <ele>2454</ele>
        <time>2015-07-20T08:08:43Z</time>
      </trkpt>
      <trkpt lat="44.78774" lon="6.98424">
        <ele>2460.5</ele>
        <time>2015-07-20T08:09:31Z</time>
      </trkpt>
      <trkpt lat="44.78781" lon="6.98416">
        <ele>2463.8</ele>
        <time>2015-07-20T08:09:48Z</time>
      </trkpt>
      <trkpt lat="44.78781" lon="6.98415">
        <ele>2463.6</ele>
        <time>2015-07-20T08:09:49Z</time>
      </trkpt>
      <trkpt lat="44.78794" lon="6.98401">
        <ele>2469.3</ele>
        <time>2015-07-20T08:10:22Z</time>
      </trkpt>
      <trkpt lat="44.788" lon="6.98393">
        <ele>2470.5</ele>
        <time>2015-07-20T08:10:32Z</time>
      </trkpt>
      <trkpt lat="44.78805" lon="6.98384">
        <ele>2471.2</ele>
        <time>2015-07-20T08:10:40Z</time>
      </trkpt>
      <trkpt lat="44.7881" lon="6.98374">
        <ele>2471.1</ele>
        <time>2015-07-20T08:10:48Z</time>
      </trkpt>
      <trkpt lat="44.78814" lon="6.98362">
        <ele>2472.4</ele>
        <time>2015-07-20T08:11:00Z</time>
      </trkpt>
      <trkpt lat="44.78814" lon="6.98362">
        <ele>2472.6</ele>
        <time>2015-07-20T08:11:01Z</time>
      </trkpt>
      <trkpt lat="44.7882" lon="6.9834">
        <ele>2477.9</ele>
        <time>2015-07-20T08:11:51Z</time>
      </trkpt>
      <trkpt lat="44.78822" lon="6.98352">
        <ele>2478.3</ele>
        <time>2015-07-20T08:12:06Z</time>
      </trkpt>
      <trkpt lat="44.78822" lon="6.98353">
        <ele>2478.6</ele>
        <time>2015-07-20T08:12:07Z</time>
      </trkpt>
      <trkpt lat="44.78818" lon="6.98376">
        <ele>2482</ele>
        <time>2015-07-20T08:12:36Z</time>
      </trkpt>
      <trkpt lat="44.78824" lon="6.98385">
        <ele>2484.6</ele>
        <time>2015-07-20T08:13:00Z</time>
      </trkpt>
      <trkpt lat="44.78832" lon="6.98388">
        <ele>2487.7</ele>
        <time>2015-07-20T08:13:14Z</time>
      </trkpt>
      <trkpt lat="44.78833" lon="6.98388">
        <ele>2488.2</ele>
        <time>2015-07-20T08:13:15Z</time>
      </trkpt>
      <trkpt lat="44.7885" lon="6.98389">
        <ele>2490.8</ele>
        <time>2015-07-20T08:13:43Z</time>
      </trkpt>
      <trkpt lat="44.78854" lon="6.98378">
        <ele>2491.8</ele>
        <time>2015-07-20T08:13:59Z</time>
      </trkpt>
      <trkpt lat="44.78856" lon="6.98366">
        <ele>2491.5</ele>
        <time>2015-07-20T08:14:08Z</time>
      </trkpt>
      <trkpt lat="44.78858" lon="6.98354">
        <ele>2491.2</ele>
        <time>2015-07-20T08:14:17Z</time>
      </trkpt>
      <trkpt lat="44.78858" lon="6.98353">
        <ele>2491.3</ele>
        <time>2015-07-20T08:14:18Z</time>
      </trkpt>
      <trkpt lat="44.78862" lon="6.98331">
        <ele>2495.2</ele>
        <time>2015-07-20T08:14:33Z</time>
      </trkpt>
      <trkpt lat="44.78864" lon="6.9832">
        <ele>2495.3</ele>
        <time>2015-07-20T08:14:42Z</time>
      </trkpt>
      <trkpt lat="44.78869" lon="6.98309">
        <ele>2496</ele>
        <time>2015-07-20T08:14:53Z</time>
      </trkpt>
      <trkpt lat="44.78874" lon="6.983">
        <ele>2498.1</ele>
        <time>2015-07-20T08:15:04Z</time>
      </trkpt>
      <trkpt lat="44.78877" lon="6.98289">
        <ele>2499.5</ele>
        <time>2015-07-20T08:15:15Z</time>
      </trkpt>
      <trkpt lat="44.78881" lon="6.98278">
        <ele>2501.3</ele>
        <time>2015-07-20T08:15:25Z</time>
      </trkpt>
      <trkpt lat="44.78881" lon="6.98277">
        <ele>2501.5</ele>
        <time>2015-07-20T08:15:26Z</time>
      </trkpt>
      <trkpt lat="44.78888" lon="6.98259">
        <ele>2503.6</ele>
        <time>2015-07-20T08:15:43Z</time>
      </trkpt>
      <trkpt lat="44.7889" lon="6.98246">
        <ele>2504.6</ele>
        <time>2015-07-20T08:15:53Z</time>
      </trkpt>
      <trkpt lat="44.78895" lon="6.98236">
        <ele>2506.9</ele>
        <time>2015-07-20T08:16:15Z</time>
      </trkpt>
      <trkpt lat="44.78897" lon="6.98224">
        <ele>2510.6</ele>
        <time>2015-07-20T08:16:47Z</time>
      </trkpt>
      <trkpt lat="44.78897" lon="6.98223">
        <ele>2510.7</ele>
        <time>2015-07-20T08:16:48Z</time>
      </trkpt>
      <trkpt lat="44.789" lon="6.98201">
        <ele>2511.2</ele>
        <time>2015-07-20T08:17:11Z</time>
      </trkpt>
      <trkpt lat="44.78903" lon="6.9819">
        <ele>2514.5</ele>
        <time>2015-07-20T08:17:24Z</time>
      </trkpt>
      <trkpt lat="44.78906" lon="6.9818">
        <ele>2514.7</ele>
        <time>2015-07-20T08:17:32Z</time>
      </trkpt>
      <trkpt lat="44.78909" lon="6.98168">
        <ele>2514.5</ele>
        <time>2015-07-20T08:17:41Z</time>
      </trkpt>
      <trkpt lat="44.78914" lon="6.98158">
        <ele>2516.5</ele>
        <time>2015-07-20T08:17:52Z</time>
      </trkpt>
      <trkpt lat="44.78914" lon="6.98157">
        <ele>2516.6</ele>
        <time>2015-07-20T08:17:53Z</time>
      </trkpt>
      <trkpt lat="44.78924" lon="6.98137">
        <ele>2520</ele>
        <time>2015-07-20T08:18:18Z</time>
      </trkpt>
      <trkpt lat="44.78928" lon="6.98126">
        <ele>2522.5</ele>
        <time>2015-07-20T08:18:32Z</time>
      </trkpt>
      <trkpt lat="44.7893" lon="6.98115">
        <ele>2523.1</ele>
        <time>2015-07-20T08:18:45Z</time>
      </trkpt>
      <trkpt lat="44.78934" lon="6.98104">
        <ele>2522.2</ele>
        <time>2015-07-20T08:18:55Z</time>
      </trkpt>
      <trkpt lat="44.78935" lon="6.98103">
        <ele>2522.3</ele>
        <time>2015-07-20T08:18:56Z</time>
      </trkpt>
      <trkpt lat="44.78941" lon="6.98082">
        <ele>2525.4</ele>
        <time>2015-07-20T08:19:22Z</time>
      </trkpt>
      <trkpt lat="44.78944" lon="6.98071">
        <ele>2529.1</ele>
        <time>2015-07-20T08:19:40Z</time>
      </trkpt>
      <trkpt lat="44.78949" lon="6.98061">
        <ele>2530.8</ele>
        <time>2015-07-20T08:19:53Z</time>
      </trkpt>
      <trkpt lat="44.78953" lon="6.9805">
        <ele>2538.5</ele>
        <time>2015-07-20T08:20:11Z</time>
      </trkpt>
      <trkpt lat="44.78953" lon="6.98049">
        <ele>2541.8</ele>
        <time>2015-07-20T08:20:12Z</time>
      </trkpt>
      <trkpt lat="44.78955" lon="6.98027">
        <ele>2550.8</ele>
        <time>2015-07-20T08:20:33Z</time>
      </trkpt>
      <trkpt lat="44.78955" lon="6.98015">
        <ele>2549.3</ele>
        <time>2015-07-20T08:20:45Z</time>
      </trkpt>
      <trkpt lat="44.78959" lon="6.98003">
        <ele>2550.4</ele>
        <time>2015-07-20T08:21:50Z</time>
      </trkpt>
      <trkpt lat="44.78959" lon="6.98002">
        <ele>2550.5</ele>
        <time>2015-07-20T08:21:51Z</time>
      </trkpt>
      <trkpt lat="44.78967" lon="6.97982">
        <ele>2548.9</ele>
        <time>2015-07-20T08:22:07Z</time>
      </trkpt>
      <trkpt lat="44.7897" lon="6.97971">
        <ele>2548.4</ele>
        <time>2015-07-20T08:22:15Z</time>
      </trkpt>
      <trkpt lat="44.78973" lon="6.97959">
        <ele>2547.6</ele>
        <time>2015-07-20T08:22:23Z</time>
      </trkpt>
      <trkpt lat="44.78978" lon="6.97951">
        <ele>2548.3</ele>
        <time>2015-07-20T08:22:30Z</time>
      </trkpt>
      <trkpt lat="44.78984" lon="6.97942">
        <ele>2548.3</ele>
        <time>2015-07-20T08:22:38Z</time>
      </trkpt>
      <trkpt lat="44.78988" lon="6.97932">
        <ele>2549</ele>
        <time>2015-07-20T08:22:46Z</time>
      </trkpt>
      <trkpt lat="44.78991" lon="6.97921">
        <ele>2551.5</ele>
        <time>2015-07-20T08:22:55Z</time>
      </trkpt>
      <trkpt lat="44.78991" lon="6.9792">
        <ele>2551.7</ele>
        <time>2015-07-20T08:22:56Z</time>
      </trkpt>
      <trkpt lat="44.78999" lon="6.97901">
        <ele>2552.2</ele>
        <time>2015-07-20T08:23:14Z</time>
      </trkpt>
      <trkpt lat="44.79001" lon="6.9789">
        <ele>2554.1</ele>
        <time>2015-07-20T08:23:24Z</time>
      </trkpt>
      <trkpt lat="44.79003" lon="6.97878">
        <ele>2555.8</ele>
        <time>2015-07-20T08:23:34Z</time>
      </trkpt>
      <trkpt lat="44.79005" lon="6.97866">
        <ele>2555.7</ele>
        <time>2015-07-20T08:23:42Z</time>
      </trkpt>
      <trkpt lat="44.79007" lon="6.97855">
        <ele>2555.4</ele>
        <time>2015-07-20T08:23:50Z</time>
      </trkpt>
      <trkpt lat="44.7901" lon="6.97844">
        <ele>2557.1</ele>
        <time>2015-07-20T08:23:59Z</time>
      </trkpt>
      <trkpt lat="44.7901" lon="6.97843">
        <ele>2557.1</ele>
        <time>2015-07-20T08:24:00Z</time>
      </trkpt>
      <trkpt lat="44.79012" lon="6.9782">
        <ele>2559.2</ele>
        <time>2015-07-20T08:24:20Z</time>
      </trkpt>
      <trkpt lat="44.79014" lon="6.97808">
        <ele>2560.2</ele>
        <time>2015-07-20T08:24:43Z</time>
      </trkpt>
      <trkpt lat="44.79015" lon="6.97796">
        <ele>2560.2</ele>
        <time>2015-07-20T08:24:53Z</time>
      </trkpt>
      <trkpt lat="44.79015" lon="6.97785">
        <ele>2561.3</ele>
        <time>2015-07-20T08:25:01Z</time>
      </trkpt>
      <trkpt lat="44.79015" lon="6.97773">
        <ele>2561.6</ele>
        <time>2015-07-20T08:25:10Z</time>
      </trkpt>
      <trkpt lat="44.79015" lon="6.97771">
        <ele>2561.5</ele>
        <time>2015-07-20T08:25:11Z</time>
      </trkpt>
      <trkpt lat="44.79015" lon="6.97749">
        <ele>2561.6</ele>
        <time>2015-07-20T08:25:26Z</time>
      </trkpt>
      <trkpt lat="44.79016" lon="6.97736">
        <ele>2561.9</ele>
        <time>2015-07-20T08:25:35Z</time>
      </trkpt>
      <trkpt lat="44.79017" lon="6.97725">
        <ele>2561.5</ele>
        <time>2015-07-20T08:25:44Z</time>
      </trkpt>
      <trkpt lat="44.79017" lon="6.97713">
        <ele>2561.2</ele>
        <time>2015-07-20T08:26:18Z</time>
      </trkpt>
      <trkpt lat="44.79017" lon="6.97712">
        <ele>2561.1</ele>
        <time>2015-07-20T08:26:19Z</time>
      </trkpt>
      <trkpt lat="44.79019" lon="6.97689">
        <ele>2558.2</ele>
        <time>2015-07-20T08:26:36Z</time>
      </trkpt>
      <trkpt lat="44.79021" lon="6.97677">
        <ele>2557.8</ele>
        <time>2015-07-20T08:26:45Z</time>
      </trkpt>
      <trkpt lat="44.79025" lon="6.97666">
        <ele>2558.5</ele>
        <time>2015-07-20T08:27:00Z</time>
      </trkpt>
      <trkpt lat="44.79029" lon="6.97656">
        <ele>2559.6</ele>
        <time>2015-07-20T08:27:08Z</time>
      </trkpt>
      <trkpt lat="44.79031" lon="6.97643">
        <ele>2556.3</ele>
        <time>2015-07-20T08:27:19Z</time>
      </trkpt>
      <trkpt lat="44.7903" lon="6.97632">
        <ele>2556.1</ele>
        <time>2015-07-20T08:27:36Z</time>
      </trkpt>
      <trkpt lat="44.7903" lon="6.9763">
        <ele>2556.1</ele>
        <time>2015-07-20T08:27:37Z</time>
      </trkpt>
      <trkpt lat="44.79028" lon="6.97609">
        <ele>2553</ele>
        <time>2015-07-20T08:27:53Z</time>
      </trkpt>
      <trkpt lat="44.79026" lon="6.97597">
        <ele>2553.5</ele>
        <time>2015-07-20T08:28:02Z</time>
      </trkpt>
      <trkpt lat="44.79024" lon="6.97585">
        <ele>2553.3</ele>
        <time>2015-07-20T08:28:10Z</time>
      </trkpt>
      <trkpt lat="44.79022" lon="6.97573">
        <ele>2552.7</ele>
        <time>2015-07-20T08:28:18Z</time>
      </trkpt>
      <trkpt lat="44.79022" lon="6.97561">
        <ele>2554.7</ele>
        <time>2015-07-20T08:28:26Z</time>
      </trkpt>
      <trkpt lat="44.79024" lon="6.97549">
        <ele>2554.2</ele>
        <time>2015-07-20T08:28:34Z</time>
      </trkpt>
      <trkpt lat="44.79018" lon="6.9754">
        <ele>2555.3</ele>
        <time>2015-07-20T08:29:13Z</time>
      </trkpt>
      <trkpt lat="44.79018" lon="6.97539">
        <ele>2555.3</ele>
        <time>2015-07-20T08:29:14Z</time>
      </trkpt>
      <trkpt lat="44.79018" lon="6.97516">
        <ele>2555.7</ele>
        <time>2015-07-20T08:29:31Z</time>
      </trkpt>
      <trkpt lat="44.79019" lon="6.97504">
        <ele>2554.4</ele>
        <time>2015-07-20T08:29:39Z</time>
      </trkpt>
      <trkpt lat="44.79018" lon="6.97492">
        <ele>2554.6</ele>
        <time>2015-07-20T08:29:48Z</time>
      </trkpt>
      <trkpt lat="44.79014" lon="6.97481">
        <ele>2553.5</ele>
        <time>2015-07-20T08:29:55Z</time>
      </trkpt>
      <trkpt lat="44.79013" lon="6.97469">
        <ele>2554.2</ele>
        <time>2015-07-20T08:30:03Z</time>
      </trkpt>
      <trkpt lat="44.7901" lon="6.97459">
        <ele>2553.1</ele>
        <time>2015-07-20T08:30:10Z</time>
      </trkpt>
      <trkpt lat="44.79008" lon="6.97447">
        <ele>2553.8</ele>
        <time>2015-07-20T08:30:18Z</time>
      </trkpt>
      <trkpt lat="44.79008" lon="6.97446">
        <ele>2553.5</ele>
        <time>2015-07-20T08:30:19Z</time>
      </trkpt>
      <trkpt lat="44.79" lon="6.97426">
        <ele>2554.5</ele>
        <time>2015-07-20T08:30:37Z</time>
      </trkpt>
      <trkpt lat="44.78998" lon="6.97414">
        <ele>2557.9</ele>
        <time>2015-07-20T08:30:49Z</time>
      </trkpt>
      <trkpt lat="44.78999" lon="6.97402">
        <ele>2561.1</ele>
        <time>2015-07-20T08:30:59Z</time>
      </trkpt>
      <trkpt lat="44.78998" lon="6.97391">
        <ele>2562.1</ele>
        <time>2015-07-20T08:31:08Z</time>
      </trkpt>
      <trkpt lat="44.78998" lon="6.97378">
        <ele>2562.5</ele>
        <time>2015-07-20T08:31:18Z</time>
      </trkpt>
      <trkpt lat="44.78999" lon="6.97366">
        <ele>2565.9</ele>
        <time>2015-07-20T08:31:29Z</time>
      </trkpt>
      <trkpt lat="44.79" lon="6.97365">
        <ele>2566.1</ele>
        <time>2015-07-20T08:31:30Z</time>
      </trkpt>
      <trkpt lat="44.79" lon="6.97343">
        <ele>2568.6</ele>
        <time>2015-07-20T08:31:50Z</time>
      </trkpt>
      <trkpt lat="44.78998" lon="6.97331">
        <ele>2570</ele>
        <time>2015-07-20T08:32:00Z</time>
      </trkpt>
      <trkpt lat="44.78996" lon="6.9732">
        <ele>2571.2</ele>
        <time>2015-07-20T08:32:10Z</time>
      </trkpt>
      <trkpt lat="44.78995" lon="6.97308">
        <ele>2574.3</ele>
        <time>2015-07-20T08:32:21Z</time>
      </trkpt>
      <trkpt lat="44.78997" lon="6.97296">
        <ele>2576.3</ele>
        <time>2015-07-20T08:32:34Z</time>
      </trkpt>
      <trkpt lat="44.78996" lon="6.97295">
        <ele>2576.3</ele>
        <time>2015-07-20T08:32:35Z</time>
      </trkpt>
      <trkpt lat="44.79002" lon="6.97273">
        <ele>2581.2</ele>
        <time>2015-07-20T08:33:00Z</time>
      </trkpt>
      <trkpt lat="44.79004" lon="6.97261">
        <ele>2583</ele>
        <time>2015-07-20T08:33:11Z</time>
      </trkpt>
      <trkpt lat="44.79007" lon="6.9725">
        <ele>2584.5</ele>
        <time>2015-07-20T08:33:21Z</time>
      </trkpt>
      <trkpt lat="44.7901" lon="6.9724">
        <ele>2586.2</ele>
        <time>2015-07-20T08:33:30Z</time>
      </trkpt>
      <trkpt lat="44.79014" lon="6.97229">
        <ele>2586.4</ele>
        <time>2015-07-20T08:33:41Z</time>
      </trkpt>
      <trkpt lat="44.79015" lon="6.97228">
        <ele>2586.5</ele>
        <time>2015-07-20T08:33:42Z</time>
      </trkpt>
      <trkpt lat="44.79025" lon="6.97209">
        <ele>2589.4</ele>
        <time>2015-07-20T08:34:29Z</time>
      </trkpt>
      <trkpt lat="44.79021" lon="6.97198">
        <ele>2590</ele>
        <time>2015-07-20T08:35:15Z</time>
      </trkpt>
      <trkpt lat="44.7902" lon="6.97198">
        <ele>2590</ele>
        <time>2015-07-20T08:35:16Z</time>
      </trkpt>
      <trkpt lat="44.79032" lon="6.97179">
        <ele>2589.8</ele>
        <time>2015-07-20T08:37:04Z</time>
      </trkpt>
      <trkpt lat="44.79032" lon="6.97178">
        <ele>2589.8</ele>
        <time>2015-07-20T08:37:05Z</time>
      </trkpt>
      <trkpt lat="44.79033" lon="6.97155">
        <ele>2587.4</ele>
        <time>2015-07-20T08:37:25Z</time>
      </trkpt>
      <trkpt lat="44.79034" lon="6.97144">
        <ele>2586.3</ele>
        <time>2015-07-20T08:37:38Z</time>
      </trkpt>
      <trkpt lat="44.79036" lon="6.97132">
        <ele>2584.8</ele>
        <time>2015-07-20T08:37:49Z</time>
      </trkpt>
      <trkpt lat="44.79037" lon="6.9712">
        <ele>2585</ele>
        <time>2015-07-20T08:38:00Z</time>
      </trkpt>
      <trkpt lat="44.79039" lon="6.97109">
        <ele>2586.1</ele>
        <time>2015-07-20T08:38:15Z</time>
      </trkpt>
      <trkpt lat="44.79039" lon="6.97107">
        <ele>2586.1</ele>
        <time>2015-07-20T08:38:16Z</time>
      </trkpt>
      <trkpt lat="44.79042" lon="6.97085">
        <ele>2584.7</ele>
        <time>2015-07-20T08:38:37Z</time>
      </trkpt>
      <trkpt lat="44.79045" lon="6.97075">
        <ele>2584.6</ele>
        <time>2015-07-20T08:38:44Z</time>
      </trkpt>
      <trkpt lat="44.79049" lon="6.97064">
        <ele>2582.2</ele>
        <time>2015-07-20T08:38:53Z</time>
      </trkpt>
      <trkpt lat="44.79054" lon="6.97055">
        <ele>2579.1</ele>
        <time>2015-07-20T08:39:41Z</time>
      </trkpt>
      <trkpt lat="44.79055" lon="6.97054">
        <ele>2579.3</ele>
        <time>2015-07-20T08:39:42Z</time>
      </trkpt>
      <trkpt lat="44.79064" lon="6.97036">
        <ele>2579</ele>
        <time>2015-07-20T08:39:56Z</time>
      </trkpt>
      <trkpt lat="44.79069" lon="6.97027">
        <ele>2577.9</ele>
        <time>2015-07-20T08:40:03Z</time>
      </trkpt>
      <trkpt lat="44.79075" lon="6.9702">
        <ele>2579.3</ele>
        <time>2015-07-20T08:40:10Z</time>
      </trkpt>
      <trkpt lat="44.79081" lon="6.97011">
        <ele>2578</ele>
        <time>2015-07-20T08:40:18Z</time>
      </trkpt>
      <trkpt lat="44.79085" lon="6.97001">
        <ele>2577.6</ele>
        <time>2015-07-20T08:40:24Z</time>
      </trkpt>
      <trkpt lat="44.79091" lon="6.96994">
        <ele>2578.2</ele>
        <time>2015-07-20T08:40:31Z</time>
      </trkpt>
      <trkpt lat="44.79097" lon="6.96986">
        <ele>2578.9</ele>
        <time>2015-07-20T08:40:38Z</time>
      </trkpt>
      <trkpt lat="44.79103" lon="6.96979">
        <ele>2581.3</ele>
        <time>2015-07-20T08:40:46Z</time>
      </trkpt>
      <trkpt lat="44.79104" lon="6.96977">
        <ele>2581.6</ele>
        <time>2015-07-20T08:40:47Z</time>
      </trkpt>
      <trkpt lat="44.79112" lon="6.96957">
        <ele>2581</ele>
        <time>2015-07-20T08:41:00Z</time>
      </trkpt>
      <trkpt lat="44.79115" lon="6.96947">
        <ele>2578.8</ele>
        <time>2015-07-20T08:41:06Z</time>
      </trkpt>
      <trkpt lat="44.79119" lon="6.96937">
        <ele>2577.7</ele>
        <time>2015-07-20T08:41:12Z</time>
      </trkpt>
      <trkpt lat="44.79122" lon="6.96925">
        <ele>2575.8</ele>
        <time>2015-07-20T08:41:19Z</time>
      </trkpt>
      <trkpt lat="44.79122" lon="6.96913">
        <ele>2574.2</ele>
        <time>2015-07-20T08:42:00Z</time>
      </trkpt>
      <trkpt lat="44.79123" lon="6.96912">
        <ele>2574.1</ele>
        <time>2015-07-20T08:42:01Z</time>
      </trkpt>
      <trkpt lat="44.79127" lon="6.96891">
        <ele>2574.2</ele>
        <time>2015-07-20T08:42:14Z</time>
      </trkpt>
      <trkpt lat="44.7913" lon="6.9688">
        <ele>2574.8</ele>
        <time>2015-07-20T08:42:21Z</time>
      </trkpt>
      <trkpt lat="44.79134" lon="6.9687">
        <ele>2574.4</ele>
        <time>2015-07-20T08:42:27Z</time>
      </trkpt>
      <trkpt lat="44.7914" lon="6.9686">
        <ele>2574.8</ele>
        <time>2015-07-20T08:42:34Z</time>
      </trkpt>
      <trkpt lat="44.79146" lon="6.96851">
        <ele>2576.6</ele>
        <time>2015-07-20T08:42:41Z</time>
      </trkpt>
      <trkpt lat="44.79151" lon="6.96841">
        <ele>2577.3</ele>
        <time>2015-07-20T08:42:49Z</time>
      </trkpt>
      <trkpt lat="44.79157" lon="6.96832">
        <ele>2579.3</ele>
        <time>2015-07-20T08:43:02Z</time>
      </trkpt>
      <trkpt lat="44.79157" lon="6.96832">
        <ele>2579.2</ele>
        <time>2015-07-20T08:43:03Z</time>
      </trkpt>
      <trkpt lat="44.79162" lon="6.96821">
        <ele>2581.2</ele>
        <time>2015-07-20T08:48:25Z</time>
      </trkpt>
      <trkpt lat="44.79175" lon="6.96811">
        <ele>2581.6</ele>
        <time>2015-07-20T08:48:41Z</time>
      </trkpt>
      <trkpt lat="44.79181" lon="6.96802">
        <ele>2580.3</ele>
        <time>2015-07-20T08:48:52Z</time>
      </trkpt>
      <trkpt lat="44.79187" lon="6.96794">
        <ele>2578.6</ele>
        <time>2015-07-20T08:49:01Z</time>
      </trkpt>
      <trkpt lat="44.79192" lon="6.96784">
        <ele>2576.4</ele>
        <time>2015-07-20T08:49:11Z</time>
      </trkpt>
      <trkpt lat="44.79196" lon="6.96773">
        <ele>2574.2</ele>
        <time>2015-07-20T08:49:20Z</time>
      </trkpt>
      <trkpt lat="44.79201" lon="6.96763">
        <ele>2572.8</ele>
        <time>2015-07-20T08:49:30Z</time>
      </trkpt>
      <trkpt lat="44.79202" lon="6.96763">
        <ele>2572.2</ele>
        <time>2015-07-20T08:49:31Z</time>
      </trkpt>
      <trkpt lat="44.79213" lon="6.96746">
        <ele>2567.4</ele>
        <time>2015-07-20T08:49:58Z</time>
      </trkpt>
      <trkpt lat="44.79216" lon="6.96734">
        <ele>2562.6</ele>
        <time>2015-07-20T08:50:16Z</time>
      </trkpt>
      <trkpt lat="44.79219" lon="6.96723">
        <ele>2559.1</ele>
        <time>2015-07-20T08:50:29Z</time>
      </trkpt>
      <trkpt lat="44.79221" lon="6.96711">
        <ele>2556.9</ele>
        <time>2015-07-20T08:50:41Z</time>
      </trkpt>
      <trkpt lat="44.79221" lon="6.9671">
        <ele>2556.3</ele>
        <time>2015-07-20T08:50:42Z</time>
      </trkpt>
      <trkpt lat="44.79229" lon="6.9669">
        <ele>2552.8</ele>
        <time>2015-07-20T08:51:02Z</time>
      </trkpt>
      <trkpt lat="44.79234" lon="6.96679">
        <ele>2549.6</ele>
        <time>2015-07-20T08:51:16Z</time>
      </trkpt>
      <trkpt lat="44.79229" lon="6.96669">
        <ele>2547.7</ele>
        <time>2015-07-20T08:52:30Z</time>
      </trkpt>
      <trkpt lat="44.79229" lon="6.96668">
        <ele>2547.5</ele>
        <time>2015-07-20T08:52:31Z</time>
      </trkpt>
      <trkpt lat="44.79241" lon="6.96653">
        <ele>2545.4</ele>
        <time>2015-07-20T08:52:49Z</time>
      </trkpt>
      <trkpt lat="44.79248" lon="6.96645">
        <ele>2543.3</ele>
        <time>2015-07-20T08:53:00Z</time>
      </trkpt>
      <trkpt lat="44.79254" lon="6.96637">
        <ele>2540.7</ele>
        <time>2015-07-20T08:53:12Z</time>
      </trkpt>
      <trkpt lat="44.7926" lon="6.96629">
        <ele>2537.9</ele>
        <time>2015-07-20T08:53:23Z</time>
      </trkpt>
      <trkpt lat="44.79268" lon="6.96622">
        <ele>2535.8</ele>
        <time>2015-07-20T08:53:36Z</time>
      </trkpt>
      <trkpt lat="44.79268" lon="6.96622">
        <ele>2535.8</ele>
        <time>2015-07-20T08:53:37Z</time>
      </trkpt>
      <trkpt lat="44.79283" lon="6.96611">
        <ele>2533.4</ele>
        <time>2015-07-20T08:53:57Z</time>
      </trkpt>
      <trkpt lat="44.79287" lon="6.96599">
        <ele>2530.8</ele>
        <time>2015-07-20T08:54:09Z</time>
      </trkpt>
      <trkpt lat="44.79289" lon="6.96588">
        <ele>2527</ele>
        <time>2015-07-20T08:54:20Z</time>
      </trkpt>
      <trkpt lat="44.79292" lon="6.96577">
        <ele>2526.2</ele>
        <time>2015-07-20T08:54:29Z</time>
      </trkpt>
      <trkpt lat="44.79297" lon="6.96567">
        <ele>2525.2</ele>
        <time>2015-07-20T08:54:37Z</time>
      </trkpt>
      <trkpt lat="44.79298" lon="6.96566">
        <ele>2525.1</ele>
        <time>2015-07-20T08:54:38Z</time>
      </trkpt>
      <trkpt lat="44.7931" lon="6.96554">
        <ele>2523.6</ele>
        <time>2015-07-20T08:54:53Z</time>
      </trkpt>
      <trkpt lat="44.79316" lon="6.96546">
        <ele>2523.1</ele>
        <time>2015-07-20T08:55:05Z</time>
      </trkpt>
      <trkpt lat="44.7932" lon="6.96535">
        <ele>2521.4</ele>
        <time>2015-07-20T08:55:14Z</time>
      </trkpt>
      <trkpt lat="44.79325" lon="6.96525">
        <ele>2520.5</ele>
        <time>2015-07-20T08:55:22Z</time>
      </trkpt>
      <trkpt lat="44.7933" lon="6.96515">
        <ele>2519.2</ele>
        <time>2015-07-20T08:55:29Z</time>
      </trkpt>
      <trkpt lat="44.79336" lon="6.96505">
        <ele>2518.6</ele>
        <time>2015-07-20T08:55:38Z</time>
      </trkpt>
      <trkpt lat="44.79336" lon="6.96504">
        <ele>2518.7</ele>
        <time>2015-07-20T08:55:39Z</time>
      </trkpt>
      <trkpt lat="44.79341" lon="6.96482">
        <ele>2520.2</ele>
        <time>2015-07-20T08:59:28Z</time>
      </trkpt>
      <trkpt lat="44.79341" lon="6.96482">
        <ele>2520.4</ele>
        <time>2015-07-20T08:59:29Z</time>
      </trkpt>
      <trkpt lat="44.79349" lon="6.96461">
        <ele>2515.1</ele>
        <time>2015-07-20T09:00:09Z</time>
      </trkpt>
      <trkpt lat="44.79352" lon="6.9645">
        <ele>2513</ele>
        <time>2015-07-20T09:00:22Z</time>
      </trkpt>
      <trkpt lat="44.79354" lon="6.96438">
        <ele>2511.1</ele>
        <time>2015-07-20T09:00:35Z</time>
      </trkpt>
      <trkpt lat="44.79354" lon="6.96437">
        <ele>2511.1</ele>
        <time>2015-07-20T09:00:36Z</time>
      </trkpt>
      <trkpt lat="44.79361" lon="6.96415">
        <ele>2504.6</ele>
        <time>2015-07-20T09:00:59Z</time>
      </trkpt>
      <trkpt lat="44.79366" lon="6.96404">
        <ele>2503</ele>
        <time>2015-07-20T09:01:14Z</time>
      </trkpt>
      <trkpt lat="44.79373" lon="6.96396">
        <ele>2499.5</ele>
        <time>2015-07-20T09:01:41Z</time>
      </trkpt>
      <trkpt lat="44.79373" lon="6.96396">
        <ele>2499</ele>
        <time>2015-07-20T09:01:42Z</time>
      </trkpt>
      <trkpt lat="44.79383" lon="6.96376">
        <ele>2495.7</ele>
        <time>2015-07-20T09:02:06Z</time>
      </trkpt>
      <trkpt lat="44.79388" lon="6.96368">
        <ele>2494.4</ele>
        <time>2015-07-20T09:02:16Z</time>
      </trkpt>
      <trkpt lat="44.79392" lon="6.96357">
        <ele>2491.7</ele>
        <time>2015-07-20T09:02:26Z</time>
      </trkpt>
      <trkpt lat="44.79397" lon="6.96347">
        <ele>2489.5</ele>
        <time>2015-07-20T09:02:39Z</time>
      </trkpt>
      <trkpt lat="44.79404" lon="6.96339">
        <ele>2489.3</ele>
        <time>2015-07-20T09:02:48Z</time>
      </trkpt>
      <trkpt lat="44.79404" lon="6.96338">
        <ele>2488.9</ele>
        <time>2015-07-20T09:02:49Z</time>
      </trkpt>
      <trkpt lat="44.79414" lon="6.96321">
        <ele>2485.3</ele>
        <time>2015-07-20T09:03:17Z</time>
      </trkpt>
      <trkpt lat="44.79422" lon="6.96315">
        <ele>2480.9</ele>
        <time>2015-07-20T09:03:36Z</time>
      </trkpt>
      <trkpt lat="44.7943" lon="6.9631">
        <ele>2477.2</ele>
        <time>2015-07-20T09:03:52Z</time>
      </trkpt>
      <trkpt lat="44.7943" lon="6.9631">
        <ele>2477.3</ele>
        <time>2015-07-20T09:03:53Z</time>
      </trkpt>
      <trkpt lat="44.79443" lon="6.96294">
        <ele>2467.2</ele>
        <time>2015-07-20T09:04:30Z</time>
      </trkpt>
      <trkpt lat="44.79448" lon="6.96283">
        <ele>2465.8</ele>
        <time>2015-07-20T09:04:41Z</time>
      </trkpt>
      <trkpt lat="44.79454" lon="6.96274">
        <ele>2461.4</ele>
        <time>2015-07-20T09:04:57Z</time>
      </trkpt>
      <trkpt lat="44.79454" lon="6.96273">
        <ele>2461.5</ele>
        <time>2015-07-20T09:04:58Z</time>
      </trkpt>
      <trkpt lat="44.79461" lon="6.96254">
        <ele>2454.5</ele>
        <time>2015-07-20T09:05:16Z</time>
      </trkpt>
      <trkpt lat="44.79469" lon="6.96247">
        <ele>2453.4</ele>
        <time>2015-07-20T09:05:27Z</time>
      </trkpt>
      <trkpt lat="44.79476" lon="6.9624">
        <ele>2449.6</ele>
        <time>2015-07-20T09:05:43Z</time>
      </trkpt>
      <trkpt lat="44.79481" lon="6.9623">
        <ele>2446.8</ele>
        <time>2015-07-20T09:05:57Z</time>
      </trkpt>
      <trkpt lat="44.79481" lon="6.96229">
        <ele>2446.6</ele>
        <time>2015-07-20T09:05:58Z</time>
      </trkpt>
      <trkpt lat="44.79486" lon="6.9621">
        <ele>2436</ele>
        <time>2015-07-20T09:06:31Z</time>
      </trkpt>
      <trkpt lat="44.7949" lon="6.96199">
        <ele>2431.1</ele>
        <time>2015-07-20T09:06:47Z</time>
      </trkpt>
      <trkpt lat="44.79494" lon="6.96188">
        <ele>2428.6</ele>
        <time>2015-07-20T09:06:59Z</time>
      </trkpt>
      <trkpt lat="44.79494" lon="6.96186">
        <ele>2428.2</ele>
        <time>2015-07-20T09:07:00Z</time>
      </trkpt>
      <trkpt lat="44.79499" lon="6.96164">
        <ele>2420.9</ele>
        <time>2015-07-20T09:08:16Z</time>
      </trkpt>
      <trkpt lat="44.79499" lon="6.96164">
        <ele>2420.5</ele>
        <time>2015-07-20T09:08:17Z</time>
      </trkpt>
      <trkpt lat="44.79512" lon="6.96149">
        <ele>2414.1</ele>
        <time>2015-07-20T09:08:51Z</time>
      </trkpt>
      <trkpt lat="44.79517" lon="6.9614">
        <ele>2411.5</ele>
        <time>2015-07-20T09:09:04Z</time>
      </trkpt>
      <trkpt lat="44.79524" lon="6.96132">
        <ele>2408.7</ele>
        <time>2015-07-20T09:09:19Z</time>
      </trkpt>
      <trkpt lat="44.79524" lon="6.96131">
        <ele>2408.5</ele>
        <time>2015-07-20T09:09:20Z</time>
      </trkpt>
      <trkpt lat="44.79537" lon="6.96116">
        <ele>2406.2</ele>
        <time>2015-07-20T09:09:39Z</time>
      </trkpt>
      <trkpt lat="44.79545" lon="6.96109">
        <ele>2402.9</ele>
        <time>2015-07-20T09:09:56Z</time>
      </trkpt>
      <trkpt lat="44.79551" lon="6.96101">
        <ele>2400.6</ele>
        <time>2015-07-20T09:10:06Z</time>
      </trkpt>
      <trkpt lat="44.79556" lon="6.96091">
        <ele>2396.9</ele>
        <time>2015-07-20T09:10:16Z</time>
      </trkpt>
      <trkpt lat="44.79562" lon="6.96081">
        <ele>2395.2</ele>
        <time>2015-07-20T09:10:28Z</time>
      </trkpt>
      <trkpt lat="44.79562" lon="6.96079">
        <ele>2395</ele>
        <time>2015-07-20T09:10:29Z</time>
      </trkpt>
      <trkpt lat="44.79574" lon="6.96064">
        <ele>2390.8</ele>
        <time>2015-07-20T09:10:47Z</time>
      </trkpt>
      <trkpt lat="44.79581" lon="6.96057">
        <ele>2387.9</ele>
        <time>2015-07-20T09:10:56Z</time>
      </trkpt>
      <trkpt lat="44.79587" lon="6.9605">
        <ele>2386.5</ele>
        <time>2015-07-20T09:11:04Z</time>
      </trkpt>
      <trkpt lat="44.79592" lon="6.9604">
        <ele>2385.3</ele>
        <time>2015-07-20T09:11:14Z</time>
      </trkpt>
      <trkpt lat="44.79596" lon="6.96029">
        <ele>2381</ele>
        <time>2015-07-20T09:11:27Z</time>
      </trkpt>
      <trkpt lat="44.79602" lon="6.96022">
        <ele>2380.8</ele>
        <time>2015-07-20T09:11:38Z</time>
      </trkpt>
      <trkpt lat="44.79603" lon="6.96021">
        <ele>2381</ele>
        <time>2015-07-20T09:11:39Z</time>
      </trkpt>
      <trkpt lat="44.79614" lon="6.96005">
        <ele>2375.9</ele>
        <time>2015-07-20T09:12:00Z</time>
      </trkpt>
      <trkpt lat="44.79622" lon="6.95999">
        <ele>2374.4</ele>
        <time>2015-07-20T09:12:24Z</time>
      </trkpt>
      <trkpt lat="44.79625" lon="6.95987">
        <ele>2373.7</ele>
        <time>2015-07-20T09:12:34Z</time>
      </trkpt>
      <trkpt lat="44.7963" lon="6.95978">
        <ele>2374.7</ele>
        <time>2015-07-20T09:12:42Z</time>
      </trkpt>
      <trkpt lat="44.7963" lon="6.95977">
        <ele>2375</ele>
        <time>2015-07-20T09:12:43Z</time>
      </trkpt>
      <trkpt lat="44.79641" lon="6.95962">
        <ele>2376.6</ele>
        <time>2015-07-20T09:12:56Z</time>
      </trkpt>
      <trkpt lat="44.79648" lon="6.95954">
        <ele>2376.9</ele>
        <time>2015-07-20T09:13:04Z</time>
      </trkpt>
      <trkpt lat="44.79656" lon="6.95948">
        <ele>2377</ele>
        <time>2015-07-20T09:13:12Z</time>
      </trkpt>
      <trkpt lat="44.79663" lon="6.95942">
        <ele>2378.5</ele>
        <time>2015-07-20T09:13:22Z</time>
      </trkpt>
      <trkpt lat="44.79671" lon="6.95937">
        <ele>2380.8</ele>
        <time>2015-07-20T09:13:33Z</time>
      </trkpt>
      <trkpt lat="44.7968" lon="6.95935">
        <ele>2383.1</ele>
        <time>2015-07-20T09:13:43Z</time>
      </trkpt>
      <trkpt lat="44.7968" lon="6.95934">
        <ele>2383.1</ele>
        <time>2015-07-20T09:13:44Z</time>
      </trkpt>
      <trkpt lat="44.79696" lon="6.95927">
        <ele>2387.2</ele>
        <time>2015-07-20T09:14:06Z</time>
      </trkpt>
      <trkpt lat="44.79705" lon="6.95924">
        <ele>2389.4</ele>
        <time>2015-07-20T09:14:16Z</time>
      </trkpt>
      <trkpt lat="44.79703" lon="6.95911">
        <ele>2388.6</ele>
        <time>2015-07-20T09:14:32Z</time>
      </trkpt>
      <trkpt lat="44.79711" lon="6.95918">
        <ele>2390.6</ele>
        <time>2015-07-20T09:19:25Z</time>
      </trkpt>
      <trkpt lat="44.79711" lon="6.95919">
        <ele>2390.7</ele>
        <time>2015-07-20T09:19:26Z</time>
      </trkpt>
      <trkpt lat="44.79725" lon="6.95911">
        <ele>2395.7</ele>
        <time>2015-07-20T09:20:10Z</time>
      </trkpt>
      <trkpt lat="44.79726" lon="6.959">
        <ele>2395.8</ele>
        <time>2015-07-20T09:20:18Z</time>
      </trkpt>
      <trkpt lat="44.7973" lon="6.9589">
        <ele>2396.4</ele>
        <time>2015-07-20T09:20:25Z</time>
      </trkpt>
      <trkpt lat="44.79734" lon="6.95879">
        <ele>2397.2</ele>
        <time>2015-07-20T09:20:32Z</time>
      </trkpt>
      <trkpt lat="44.79734" lon="6.95877">
        <ele>2397.2</ele>
        <time>2015-07-20T09:20:33Z</time>
      </trkpt>
      <trkpt lat="44.79742" lon="6.95857">
        <ele>2399.3</ele>
        <time>2015-07-20T09:20:47Z</time>
      </trkpt>
      <trkpt lat="44.79747" lon="6.95849">
        <ele>2399.4</ele>
        <time>2015-07-20T09:20:54Z</time>
      </trkpt>
      <trkpt lat="44.79753" lon="6.95841">
        <ele>2399.5</ele>
        <time>2015-07-20T09:21:01Z</time>
      </trkpt>
      <trkpt lat="44.7976" lon="6.95832">
        <ele>2399.6</ele>
        <time>2015-07-20T09:21:08Z</time>
      </trkpt>
      <trkpt lat="44.79765" lon="6.95823">
        <ele>2400.3</ele>
        <time>2015-07-20T09:21:15Z</time>
      </trkpt>
      <trkpt lat="44.79768" lon="6.95811">
        <ele>2400.9</ele>
        <time>2015-07-20T09:21:22Z</time>
      </trkpt>
      <trkpt lat="44.79771" lon="6.958">
        <ele>2402.3</ele>
        <time>2015-07-20T09:21:29Z</time>
      </trkpt>
      <trkpt lat="44.79774" lon="6.9579">
        <ele>2401.9</ele>
        <time>2015-07-20T09:21:36Z</time>
      </trkpt>
      <trkpt lat="44.79774" lon="6.95788">
        <ele>2401.8</ele>
        <time>2015-07-20T09:21:37Z</time>
      </trkpt>
      <trkpt lat="44.79781" lon="6.95768">
        <ele>2402.4</ele>
        <time>2015-07-20T09:21:51Z</time>
      </trkpt>
      <trkpt lat="44.79785" lon="6.95757">
        <ele>2402.3</ele>
        <time>2015-07-20T09:21:58Z</time>
      </trkpt>
      <trkpt lat="44.79788" lon="6.95747">
        <ele>2401.9</ele>
        <time>2015-07-20T09:22:04Z</time>
      </trkpt>
      <trkpt lat="44.79792" lon="6.95736">
        <ele>2401.9</ele>
        <time>2015-07-20T09:22:11Z</time>
      </trkpt>
      <trkpt lat="44.79797" lon="6.95726">
        <ele>2402.8</ele>
        <time>2015-07-20T09:22:18Z</time>
      </trkpt>
      <trkpt lat="44.79803" lon="6.95717">
        <ele>2403.7</ele>
        <time>2015-07-20T09:22:25Z</time>
      </trkpt>
      <trkpt lat="44.79809" lon="6.95709">
        <ele>2404.8</ele>
        <time>2015-07-20T09:22:32Z</time>
      </trkpt>
      <trkpt lat="44.79815" lon="6.95701">
        <ele>2404.4</ele>
        <time>2015-07-20T09:22:39Z</time>
      </trkpt>
      <trkpt lat="44.79815" lon="6.95699">
        <ele>2404.4</ele>
        <time>2015-07-20T09:22:40Z</time>
      </trkpt>
      <trkpt lat="44.79824" lon="6.95681">
        <ele>2404.9</ele>
        <time>2015-07-20T09:22:53Z</time>
      </trkpt>
      <trkpt lat="44.79828" lon="6.95671">
        <ele>2405.5</ele>
        <time>2015-07-20T09:23:00Z</time>
      </trkpt>
      <trkpt lat="44.7983" lon="6.9566">
        <ele>2405.4</ele>
        <time>2015-07-20T09:23:14Z</time>
      </trkpt>
      <trkpt lat="44.79836" lon="6.9565">
        <ele>2404.9</ele>
        <time>2015-07-20T09:23:22Z</time>
      </trkpt>
      <trkpt lat="44.7984" lon="6.95639">
        <ele>2407.2</ele>
        <time>2015-07-20T09:23:30Z</time>
      </trkpt>
      <trkpt lat="44.79846" lon="6.9563">
        <ele>2407.6</ele>
        <time>2015-07-20T09:23:37Z</time>
      </trkpt>
      <trkpt lat="44.79852" lon="6.95623">
        <ele>2407.2</ele>
        <time>2015-07-20T09:23:44Z</time>
      </trkpt>
      <trkpt lat="44.79853" lon="6.95622">
        <ele>2407</ele>
        <time>2015-07-20T09:23:45Z</time>
      </trkpt>
      <trkpt lat="44.79864" lon="6.95609">
        <ele>2406.8</ele>
        <time>2015-07-20T09:23:58Z</time>
      </trkpt>
      <trkpt lat="44.7987" lon="6.95601">
        <ele>2406.6</ele>
        <time>2015-07-20T09:24:05Z</time>
      </trkpt>
      <trkpt lat="44.79868" lon="6.95613">
        <ele>2406.5</ele>
        <time>2015-07-20T09:24:24Z</time>
      </trkpt>
      <trkpt lat="44.79866" lon="6.95625">
        <ele>2409.1</ele>
        <time>2015-07-20T09:24:36Z</time>
      </trkpt>
      <trkpt lat="44.7987" lon="6.95635">
        <ele>2411.1</ele>
        <time>2015-07-20T09:24:55Z</time>
      </trkpt>
      <trkpt lat="44.79871" lon="6.95635">
        <ele>2411</ele>
        <time>2015-07-20T09:24:56Z</time>
      </trkpt>
      <trkpt lat="44.79887" lon="6.9563">
        <ele>2414.6</ele>
        <time>2015-07-20T09:25:15Z</time>
      </trkpt>
      <trkpt lat="44.79895" lon="6.95627">
        <ele>2415.7</ele>
        <time>2015-07-20T09:25:24Z</time>
      </trkpt>
      <trkpt lat="44.79904" lon="6.95632">
        <ele>2418.9</ele>
        <time>2015-07-20T09:25:35Z</time>
      </trkpt>
      <trkpt lat="44.79904" lon="6.95644">
        <ele>2422.4</ele>
        <time>2015-07-20T09:25:47Z</time>
      </trkpt>
      <trkpt lat="44.79906" lon="6.95656">
        <ele>2423.9</ele>
        <time>2015-07-20T09:25:58Z</time>
      </trkpt>
      <trkpt lat="44.79906" lon="6.95657">
        <ele>2424.1</ele>
        <time>2015-07-20T09:25:59Z</time>
      </trkpt>
      <trkpt lat="44.79909" lon="6.95676">
        <ele>2429.7</ele>
        <time>2015-07-20T09:26:23Z</time>
      </trkpt>
      <trkpt lat="44.79917" lon="6.95682">
        <ele>2433.1</ele>
        <time>2015-07-20T09:26:34Z</time>
      </trkpt>
      <trkpt lat="44.79923" lon="6.9569">
        <ele>2434.5</ele>
        <time>2015-07-20T09:26:45Z</time>
      </trkpt>
      <trkpt lat="44.79918" lon="6.95701">
        <ele>2437.5</ele>
        <time>2015-07-20T09:27:01Z</time>
      </trkpt>
      <trkpt lat="44.79918" lon="6.95701">
        <ele>2437.8</ele>
        <time>2015-07-20T09:27:02Z</time>
      </trkpt>
      <trkpt lat="44.79904" lon="6.95714">
        <ele>2438.8</ele>
        <time>2015-07-20T09:27:16Z</time>
      </trkpt>
      <trkpt lat="44.79896" lon="6.95717">
        <ele>2442.2</ele>
        <time>2015-07-20T09:27:26Z</time>
      </trkpt>
      <trkpt lat="44.79889" lon="6.95725">
        <ele>2444.8</ele>
        <time>2015-07-20T09:27:34Z</time>
      </trkpt>
      <trkpt lat="44.79887" lon="6.95737">
        <ele>2446.1</ele>
        <time>2015-07-20T09:27:44Z</time>
      </trkpt>
      <trkpt lat="44.79887" lon="6.95749">
        <ele>2448.4</ele>
        <time>2015-07-20T09:27:54Z</time>
      </trkpt>
      <trkpt lat="44.79888" lon="6.95761">
        <ele>2451</ele>
        <time>2015-07-20T09:28:06Z</time>
      </trkpt>
      <trkpt lat="44.79888" lon="6.95762">
        <ele>2451.3</ele>
        <time>2015-07-20T09:28:07Z</time>
      </trkpt>
      <trkpt lat="44.79888" lon="6.95784">
        <ele>2455</ele>
        <time>2015-07-20T09:28:27Z</time>
      </trkpt>
      <trkpt lat="44.79894" lon="6.95793">
        <ele>2458.6</ele>
        <time>2015-07-20T09:28:40Z</time>
      </trkpt>
      <trkpt lat="44.79895" lon="6.95804">
        <ele>2461</ele>
        <time>2015-07-20T09:28:49Z</time>
      </trkpt>
      <trkpt lat="44.79896" lon="6.95817">
        <ele>2462.3</ele>
        <time>2015-07-20T09:28:57Z</time>
      </trkpt>
      <trkpt lat="44.79898" lon="6.95828">
        <ele>2463.7</ele>
        <time>2015-07-20T09:29:05Z</time>
      </trkpt>
      <trkpt lat="44.79902" lon="6.95839">
        <ele>2464.4</ele>
        <time>2015-07-20T09:29:12Z</time>
      </trkpt>
      <trkpt lat="44.79901" lon="6.9584">
        <ele>2464.5</ele>
        <time>2015-07-20T09:29:13Z</time>
      </trkpt>
      <trkpt lat="44.79901" lon="6.95863">
        <ele>2467.5</ele>
        <time>2015-07-20T09:29:30Z</time>
      </trkpt>
      <trkpt lat="44.79899" lon="6.95876">
        <ele>2469.3</ele>
        <time>2015-07-20T09:30:56Z</time>
      </trkpt>
      <trkpt lat="44.79899" lon="6.95876">
        <ele>2469.5</ele>
        <time>2015-07-20T09:30:57Z</time>
      </trkpt>
      <trkpt lat="44.79892" lon="6.95883">
        <ele>2468.5</ele>
        <time>2015-07-20T09:37:43Z</time>
      </trkpt>
      <trkpt lat="44.79896" lon="6.95872">
        <ele>2470.4</ele>
        <time>2015-07-20T09:42:37Z</time>
      </trkpt>
      <trkpt lat="44.79889" lon="6.95865">
        <ele>2468.7</ele>
        <time>2015-07-20T09:45:40Z</time>
      </trkpt>
      <trkpt lat="44.79891" lon="6.95842">
        <ele>2466.5</ele>
        <time>2015-07-20T09:46:10Z</time>
      </trkpt>
      <trkpt lat="44.79896" lon="6.95832">
        <ele>2466.7</ele>
        <time>2015-07-20T09:50:22Z</time>
      </trkpt>
      <trkpt lat="44.79896" lon="6.95831">
        <ele>2466.8</ele>
        <time>2015-07-20T09:50:23Z</time>
      </trkpt>
      <trkpt lat="44.79893" lon="6.95809">
        <ele>2464.5</ele>
        <time>2015-07-20T09:50:41Z</time>
      </trkpt>
      <trkpt lat="44.79891" lon="6.95797">
        <ele>2461</ele>
        <time>2015-07-20T09:50:54Z</time>
      </trkpt>
      <trkpt lat="44.79884" lon="6.95789">
        <ele>2459.3</ele>
        <time>2015-07-20T09:51:04Z</time>
      </trkpt>
      <trkpt lat="44.79885" lon="6.95777">
        <ele>2456.9</ele>
        <time>2015-07-20T09:51:14Z</time>
      </trkpt>
      <trkpt lat="44.79886" lon="6.95765">
        <ele>2454.7</ele>
        <time>2015-07-20T09:51:27Z</time>
      </trkpt>
      <trkpt lat="44.79885" lon="6.95764">
        <ele>2454.3</ele>
        <time>2015-07-20T09:51:28Z</time>
      </trkpt>
      <trkpt lat="44.79888" lon="6.95741">
        <ele>2450.2</ele>
        <time>2015-07-20T09:51:45Z</time>
      </trkpt>
      <trkpt lat="44.79889" lon="6.95729">
        <ele>2446.5</ele>
        <time>2015-07-20T09:51:55Z</time>
      </trkpt>
      <trkpt lat="44.79895" lon="6.95721">
        <ele>2445.9</ele>
        <time>2015-07-20T09:52:05Z</time>
      </trkpt>
      <trkpt lat="44.79903" lon="6.95716">
        <ele>2444.6</ele>
        <time>2015-07-20T09:52:14Z</time>
      </trkpt>
      <trkpt lat="44.7991" lon="6.95709">
        <ele>2442</ele>
        <time>2015-07-20T09:52:23Z</time>
      </trkpt>
      <trkpt lat="44.79917" lon="6.95702">
        <ele>2440.3</ele>
        <time>2015-07-20T09:52:32Z</time>
      </trkpt>
      <trkpt lat="44.79918" lon="6.95701">
        <ele>2440.2</ele>
        <time>2015-07-20T09:52:33Z</time>
      </trkpt>
      <trkpt lat="44.79928" lon="6.95686">
        <ele>2437.9</ele>
        <time>2015-07-20T09:52:46Z</time>
      </trkpt>
      <trkpt lat="44.79933" lon="6.95676">
        <ele>2436.1</ele>
        <time>2015-07-20T09:52:54Z</time>
      </trkpt>
      <trkpt lat="44.79935" lon="6.95665">
        <ele>2432.8</ele>
        <time>2015-07-20T09:53:03Z</time>
      </trkpt>
      <trkpt lat="44.79936" lon="6.95652">
        <ele>2430.8</ele>
        <time>2015-07-20T09:53:12Z</time>
      </trkpt>
      <trkpt lat="44.79931" lon="6.95642">
        <ele>2428.8</ele>
        <time>2015-07-20T09:53:22Z</time>
      </trkpt>
      <trkpt lat="44.79923" lon="6.95639">
        <ele>2427.3</ele>
        <time>2015-07-20T09:53:33Z</time>
      </trkpt>
      <trkpt lat="44.79922" lon="6.95639">
        <ele>2427.4</ele>
        <time>2015-07-20T09:53:34Z</time>
      </trkpt>
      <trkpt lat="44.79906" lon="6.95636">
        <ele>2423.2</ele>
        <time>2015-07-20T09:53:49Z</time>
      </trkpt>
      <trkpt lat="44.79898" lon="6.95632">
        <ele>2421.5</ele>
        <time>2015-07-20T09:53:56Z</time>
      </trkpt>
      <trkpt lat="44.7989" lon="6.95631">
        <ele>2420</ele>
        <time>2015-07-20T09:54:05Z</time>
      </trkpt>
      <trkpt lat="44.79882" lon="6.95634">
        <ele>2417.6</ele>
        <time>2015-07-20T09:54:12Z</time>
      </trkpt>
      <trkpt lat="44.79875" lon="6.95639">
        <ele>2415.6</ele>
        <time>2015-07-20T09:54:21Z</time>
      </trkpt>
      <trkpt lat="44.79866" lon="6.9564">
        <ele>2414.1</ele>
        <time>2015-07-20T09:54:30Z</time>
      </trkpt>
      <trkpt lat="44.79865" lon="6.95628">
        <ele>2412.4</ele>
        <time>2015-07-20T09:54:41Z</time>
      </trkpt>
      <trkpt lat="44.79865" lon="6.95627">
        <ele>2411.9</ele>
        <time>2015-07-20T09:54:42Z</time>
      </trkpt>
      <trkpt lat="44.79853" lon="6.95625">
        <ele>2407.3</ele>
        <time>2015-07-20T09:54:57Z</time>
      </trkpt>
      <trkpt lat="44.79846" lon="6.95632">
        <ele>2408.8</ele>
        <time>2015-07-20T09:55:03Z</time>
      </trkpt>
      <trkpt lat="44.7984" lon="6.9564">
        <ele>2407.7</ele>
        <time>2015-07-20T09:55:09Z</time>
      </trkpt>
      <trkpt lat="44.79835" lon="6.95649">
        <ele>2409.3</ele>
        <time>2015-07-20T09:55:15Z</time>
      </trkpt>
      <trkpt lat="44.79831" lon="6.95659">
        <ele>2408.9</ele>
        <time>2015-07-20T09:55:21Z</time>
      </trkpt>
      <trkpt lat="44.79826" lon="6.95668">
        <ele>2406.6</ele>
        <time>2015-07-20T09:55:30Z</time>
      </trkpt>
      <trkpt lat="44.79821" lon="6.95679">
        <ele>2406.8</ele>
        <time>2015-07-20T09:55:36Z</time>
      </trkpt>
      <trkpt lat="44.79817" lon="6.9569">
        <ele>2406.2</ele>
        <time>2015-07-20T09:55:42Z</time>
      </trkpt>
      <trkpt lat="44.79817" lon="6.95692">
        <ele>2406.1</ele>
        <time>2015-07-20T09:55:43Z</time>
      </trkpt>
      <trkpt lat="44.79809" lon="6.95712">
        <ele>2406.2</ele>
        <time>2015-07-20T09:55:56Z</time>
      </trkpt>
      <trkpt lat="44.79805" lon="6.95722">
        <ele>2405.2</ele>
        <time>2015-07-20T09:56:02Z</time>
      </trkpt>
      <trkpt lat="44.79799" lon="6.9573">
        <ele>2405.7</ele>
        <time>2015-07-20T09:56:09Z</time>
      </trkpt>
      <trkpt lat="44.79793" lon="6.95739">
        <ele>2404.5</ele>
        <time>2015-07-20T09:56:15Z</time>
      </trkpt>
      <trkpt lat="44.79788" lon="6.95749">
        <ele>2404.2</ele>
        <time>2015-07-20T09:56:22Z</time>
      </trkpt>
      <trkpt lat="44.79784" lon="6.95759">
        <ele>2404.5</ele>
        <time>2015-07-20T09:56:29Z</time>
      </trkpt>
      <trkpt lat="44.79779" lon="6.95769">
        <ele>2404.4</ele>
        <time>2015-07-20T09:56:36Z</time>
      </trkpt>
      <trkpt lat="44.79775" lon="6.9578">
        <ele>2403.9</ele>
        <time>2015-07-20T09:56:43Z</time>
      </trkpt>
      <trkpt lat="44.79775" lon="6.95781">
        <ele>2403.7</ele>
        <time>2015-07-20T09:56:44Z</time>
      </trkpt>
      <trkpt lat="44.79769" lon="6.95801">
        <ele>2403</ele>
        <time>2015-07-20T09:56:56Z</time>
      </trkpt>
      <trkpt lat="44.79767" lon="6.95812">
        <ele>2402.8</ele>
        <time>2015-07-20T09:57:02Z</time>
      </trkpt>
      <trkpt lat="44.79764" lon="6.95823">
        <ele>2402.4</ele>
        <time>2015-07-20T09:57:08Z</time>
      </trkpt>
      <trkpt lat="44.79759" lon="6.95833">
        <ele>2401.8</ele>
        <time>2015-07-20T09:57:14Z</time>
      </trkpt>
      <trkpt lat="44.79753" lon="6.95842">
        <ele>2400.9</ele>
        <time>2015-07-20T09:57:20Z</time>
      </trkpt>
      <trkpt lat="44.79747" lon="6.95849">
        <ele>2400.6</ele>
        <time>2015-07-20T09:57:26Z</time>
      </trkpt>
      <trkpt lat="44.79742" lon="6.95857">
        <ele>2400.1</ele>
        <time>2015-07-20T09:57:32Z</time>
      </trkpt>
      <trkpt lat="44.79737" lon="6.95866">
        <ele>2399.9</ele>
        <time>2015-07-20T09:57:38Z</time>
      </trkpt>
      <trkpt lat="44.79733" lon="6.95875">
        <ele>2399.6</ele>
        <time>2015-07-20T09:57:44Z</time>
      </trkpt>
      <trkpt lat="44.79729" lon="6.95886">
        <ele>2398.6</ele>
        <time>2015-07-20T09:57:51Z</time>
      </trkpt>
      <trkpt lat="44.79729" lon="6.95888">
        <ele>2398.3</ele>
        <time>2015-07-20T09:57:52Z</time>
      </trkpt>
      <trkpt lat="44.79725" lon="6.95908">
        <ele>2398.5</ele>
        <time>2015-07-20T09:59:07Z</time>
      </trkpt>
      <trkpt lat="44.79724" lon="6.95909">
        <ele>2398.6</ele>
        <time>2015-07-20T09:59:08Z</time>
      </trkpt>
      <trkpt lat="44.79713" lon="6.95922">
        <ele>2396.6</ele>
        <time>2015-07-20T09:59:35Z</time>
      </trkpt>
      <trkpt lat="44.79707" lon="6.95914">
        <ele>2393.5</ele>
        <time>2015-07-20T09:59:43Z</time>
      </trkpt>
      <trkpt lat="44.79701" lon="6.95905">
        <ele>2389.8</ele>
        <time>2015-07-20T10:00:51Z</time>
      </trkpt>
      <trkpt lat="44.79701" lon="6.95905">
        <ele>2389.9</ele>
        <time>2015-07-20T10:00:52Z</time>
      </trkpt>
      <trkpt lat="44.79696" lon="6.95916">
        <ele>2390.8</ele>
        <time>2015-07-20T10:02:40Z</time>
      </trkpt>
      <trkpt lat="44.79683" lon="6.95927">
        <ele>2389.6</ele>
        <time>2015-07-20T10:02:55Z</time>
      </trkpt>
      <trkpt lat="44.79675" lon="6.95929">
        <ele>2386.8</ele>
        <time>2015-07-20T10:03:02Z</time>
      </trkpt>
      <trkpt lat="44.79667" lon="6.95931">
        <ele>2385.7</ele>
        <time>2015-07-20T10:03:10Z</time>
      </trkpt>
      <trkpt lat="44.7966" lon="6.95937">
        <ele>2383.2</ele>
        <time>2015-07-20T10:03:21Z</time>
      </trkpt>
      <trkpt lat="44.79652" lon="6.95943">
        <ele>2381.6</ele>
        <time>2015-07-20T10:03:28Z</time>
      </trkpt>
      <trkpt lat="44.79645" lon="6.95947">
        <ele>2379.8</ele>
        <time>2015-07-20T10:03:34Z</time>
      </trkpt>
      <trkpt lat="44.79638" lon="6.95954">
        <ele>2378</ele>
        <time>2015-07-20T10:03:41Z</time>
      </trkpt>
      <trkpt lat="44.79637" lon="6.95956">
        <ele>2377.7</ele>
        <time>2015-07-20T10:03:42Z</time>
      </trkpt>
      <trkpt lat="44.79626" lon="6.95973">
        <ele>2377.8</ele>
        <time>2015-07-20T10:03:56Z</time>
      </trkpt>
      <trkpt lat="44.79622" lon="6.95983">
        <ele>2375.7</ele>
        <time>2015-07-20T10:04:03Z</time>
      </trkpt>
      <trkpt lat="44.79623" lon="6.95995">
        <ele>2376.3</ele>
        <time>2015-07-20T10:04:12Z</time>
      </trkpt>
      <trkpt lat="44.79623" lon="6.96007">
        <ele>2376</ele>
        <time>2015-07-20T10:04:24Z</time>
      </trkpt>
      <trkpt lat="44.79626" lon="6.96019">
        <ele>2375</ele>
        <time>2015-07-20T10:04:34Z</time>
      </trkpt>
      <trkpt lat="44.7963" lon="6.9603">
        <ele>2371.7</ele>
        <time>2015-07-20T10:04:43Z</time>
      </trkpt>
      <trkpt lat="44.7963" lon="6.96032">
        <ele>2371.4</ele>
        <time>2015-07-20T10:04:44Z</time>
      </trkpt>
      <trkpt lat="44.79637" lon="6.96051">
        <ele>2369</ele>
        <time>2015-07-20T10:04:58Z</time>
      </trkpt>
      <trkpt lat="44.79643" lon="6.96061">
        <ele>2368.4</ele>
        <time>2015-07-20T10:05:06Z</time>
      </trkpt>
      <trkpt lat="44.79647" lon="6.96071">
        <ele>2366</ele>
        <time>2015-07-20T10:05:13Z</time>
      </trkpt>
      <trkpt lat="44.7965" lon="6.96083">
        <ele>2364</ele>
        <time>2015-07-20T10:05:22Z</time>
      </trkpt>
      <trkpt lat="44.79654" lon="6.96094">
        <ele>2362.5</ele>
        <time>2015-07-20T10:05:30Z</time>
      </trkpt>
      <trkpt lat="44.79657" lon="6.96105">
        <ele>2361.6</ele>
        <time>2015-07-20T10:05:37Z</time>
      </trkpt>
      <trkpt lat="44.79658" lon="6.96118">
        <ele>2359.1</ele>
        <time>2015-07-20T10:05:44Z</time>
      </trkpt>
      <trkpt lat="44.79661" lon="6.96129">
        <ele>2358.9</ele>
        <time>2015-07-20T10:05:52Z</time>
      </trkpt>
      <trkpt lat="44.79661" lon="6.9613">
        <ele>2358.7</ele>
        <time>2015-07-20T10:05:53Z</time>
      </trkpt>
      <trkpt lat="44.79665" lon="6.96152">
        <ele>2356.7</ele>
        <time>2015-07-20T10:06:08Z</time>
      </trkpt>
      <trkpt lat="44.79667" lon="6.96165">
        <ele>2353.4</ele>
        <time>2015-07-20T10:06:17Z</time>
      </trkpt>
      <trkpt lat="44.79664" lon="6.96176">
        <ele>2351.2</ele>
        <time>2015-07-20T10:06:29Z</time>
      </trkpt>
      <trkpt lat="44.79661" lon="6.96187">
        <ele>2349.1</ele>
        <time>2015-07-20T10:06:37Z</time>
      </trkpt>
      <trkpt lat="44.79658" lon="6.96198">
        <ele>2347.6</ele>
        <time>2015-07-20T10:06:47Z</time>
      </trkpt>
      <trkpt lat="44.79657" lon="6.96211">
        <ele>2343.5</ele>
        <time>2015-07-20T10:06:58Z</time>
      </trkpt>
      <trkpt lat="44.79657" lon="6.96212">
        <ele>2343.3</ele>
        <time>2015-07-20T10:06:59Z</time>
      </trkpt>
      <trkpt lat="44.79655" lon="6.96234">
        <ele>2339.8</ele>
        <time>2015-07-20T10:07:15Z</time>
      </trkpt>
      <trkpt lat="44.79653" lon="6.96246">
        <ele>2337.4</ele>
        <time>2015-07-20T10:07:23Z</time>
      </trkpt>
      <trkpt lat="44.79649" lon="6.96256">
        <ele>2334.1</ele>
        <time>2015-07-20T10:07:34Z</time>
      </trkpt>
      <trkpt lat="44.79644" lon="6.96266">
        <ele>2332.1</ele>
        <time>2015-07-20T10:07:47Z</time>
      </trkpt>
      <trkpt lat="44.7964" lon="6.96277">
        <ele>2331</ele>
        <time>2015-07-20T10:07:55Z</time>
      </trkpt>
      <trkpt lat="44.79637" lon="6.96286">
        <ele>2327</ele>
        <time>2015-07-20T10:08:03Z</time>
      </trkpt>
      <trkpt lat="44.79636" lon="6.96288">
        <ele>2326.6</ele>
        <time>2015-07-20T10:08:04Z</time>
      </trkpt>
      <trkpt lat="44.79629" lon="6.96309">
        <ele>2322.6</ele>
        <time>2015-07-20T10:08:19Z</time>
      </trkpt>
      <trkpt lat="44.79626" lon="6.9632">
        <ele>2319.4</ele>
        <time>2015-07-20T10:08:26Z</time>
      </trkpt>
      <trkpt lat="44.79622" lon="6.96331">
        <ele>2318</ele>
        <time>2015-07-20T10:08:32Z</time>
      </trkpt>
      <trkpt lat="44.7962" lon="6.96341">
        <ele>2317</ele>
        <time>2015-07-20T10:08:38Z</time>
      </trkpt>
      <trkpt lat="44.79616" lon="6.96352">
        <ele>2314.3</ele>
        <time>2015-07-20T10:08:45Z</time>
      </trkpt>
      <trkpt lat="44.79609" lon="6.96359">
        <ele>2312.6</ele>
        <time>2015-07-20T10:08:52Z</time>
      </trkpt>
      <trkpt lat="44.79605" lon="6.96369">
        <ele>2311.2</ele>
        <time>2015-07-20T10:09:00Z</time>
      </trkpt>
      <trkpt lat="44.79602" lon="6.9638">
        <ele>2310.9</ele>
        <time>2015-07-20T10:09:06Z</time>
      </trkpt>
      <trkpt lat="44.79602" lon="6.96382">
        <ele>2311</ele>
        <time>2015-07-20T10:09:07Z</time>
      </trkpt>
      <trkpt lat="44.79599" lon="6.96404">
        <ele>2310.3</ele>
        <time>2015-07-20T10:09:20Z</time>
      </trkpt>
      <trkpt lat="44.79599" lon="6.96416">
        <ele>2308.7</ele>
        <time>2015-07-20T10:09:28Z</time>
      </trkpt>
      <trkpt lat="44.79598" lon="6.96427">
        <ele>2307.1</ele>
        <time>2015-07-20T10:09:34Z</time>
      </trkpt>
      <trkpt lat="44.79599" lon="6.96439">
        <ele>2306</ele>
        <time>2015-07-20T10:09:41Z</time>
      </trkpt>
      <trkpt lat="44.79603" lon="6.96449">
        <ele>2304.1</ele>
        <time>2015-07-20T10:09:48Z</time>
      </trkpt>
      <trkpt lat="44.79611" lon="6.96444">
        <ele>2301.5</ele>
        <time>2015-07-20T10:10:08Z</time>
      </trkpt>
      <trkpt lat="44.79611" lon="6.96442">
        <ele>2301.1</ele>
        <time>2015-07-20T10:10:09Z</time>
      </trkpt>
      <trkpt lat="44.79624" lon="6.96427">
        <ele>2295.3</ele>
        <time>2015-07-20T10:10:40Z</time>
      </trkpt>
      <trkpt lat="44.79631" lon="6.96422">
        <ele>2293</ele>
        <time>2015-07-20T10:10:50Z</time>
      </trkpt>
      <trkpt lat="44.79639" lon="6.96417">
        <ele>2289.9</ele>
        <time>2015-07-20T10:11:00Z</time>
      </trkpt>
      <trkpt lat="44.79647" lon="6.96417">
        <ele>2287.3</ele>
        <time>2015-07-20T10:11:08Z</time>
      </trkpt>
      <trkpt lat="44.79655" lon="6.96422">
        <ele>2284.2</ele>
        <time>2015-07-20T10:11:17Z</time>
      </trkpt>
      <trkpt lat="44.79656" lon="6.96422">
        <ele>2284.2</ele>
        <time>2015-07-20T10:11:18Z</time>
      </trkpt>
      <trkpt lat="44.79666" lon="6.96438">
        <ele>2282.1</ele>
        <time>2015-07-20T10:11:32Z</time>
      </trkpt>
      <trkpt lat="44.79671" lon="6.96448">
        <ele>2279.7</ele>
        <time>2015-07-20T10:11:40Z</time>
      </trkpt>
      <trkpt lat="44.79677" lon="6.96457">
        <ele>2278.8</ele>
        <time>2015-07-20T10:11:48Z</time>
      </trkpt>
      <trkpt lat="44.79681" lon="6.96467">
        <ele>2277.1</ele>
        <time>2015-07-20T10:11:55Z</time>
      </trkpt>
      <trkpt lat="44.79686" lon="6.96477">
        <ele>2276.2</ele>
        <time>2015-07-20T10:12:02Z</time>
      </trkpt>
      <trkpt lat="44.7969" lon="6.96488">
        <ele>2275.5</ele>
        <time>2015-07-20T10:12:10Z</time>
      </trkpt>
      <trkpt lat="44.79694" lon="6.96498">
        <ele>2275.2</ele>
        <time>2015-07-20T10:12:18Z</time>
      </trkpt>
      <trkpt lat="44.79694" lon="6.96511">
        <ele>2274</ele>
        <time>2015-07-20T10:12:28Z</time>
      </trkpt>
      <trkpt lat="44.79695" lon="6.96512">
        <ele>2274.4</ele>
        <time>2015-07-20T10:12:29Z</time>
      </trkpt>
      <trkpt lat="44.79698" lon="6.96528">
        <ele>2273.7</ele>
        <time>2015-07-20T10:15:40Z</time>
      </trkpt>
      <trkpt lat="44.79695" lon="6.96526">
        <ele>2267.2</ele>
        <time>2015-07-20T10:51:55Z</time>
      </trkpt>
      <trkpt lat="44.79695" lon="6.96526">
        <ele>2267.2</ele>
        <time>2015-07-20T10:51:56Z</time>
      </trkpt>
      <trkpt lat="44.79711" lon="6.96516">
        <ele>2265.9</ele>
        <time>2015-07-20T10:52:50Z</time>
      </trkpt>
      <trkpt lat="44.79718" lon="6.96523">
        <ele>2263.3</ele>
        <time>2015-07-20T10:53:01Z</time>
      </trkpt>
      <trkpt lat="44.79719" lon="6.96523">
        <ele>2263</ele>
        <time>2015-07-20T10:53:02Z</time>
      </trkpt>
      <trkpt lat="44.79733" lon="6.96536">
        <ele>2260.6</ele>
        <time>2015-07-20T10:53:21Z</time>
      </trkpt>
      <trkpt lat="44.7974" lon="6.96542">
        <ele>2260.2</ele>
        <time>2015-07-20T10:53:29Z</time>
      </trkpt>
      <trkpt lat="44.79748" lon="6.96548">
        <ele>2258.7</ele>
        <time>2015-07-20T10:53:38Z</time>
      </trkpt>
      <trkpt lat="44.79755" lon="6.96553">
        <ele>2257.7</ele>
        <time>2015-07-20T10:53:48Z</time>
      </trkpt>
      <trkpt lat="44.79763" lon="6.96559">
        <ele>2257.1</ele>
        <time>2015-07-20T10:53:59Z</time>
      </trkpt>
      <trkpt lat="44.79769" lon="6.96568">
        <ele>2255.7</ele>
        <time>2015-07-20T10:54:09Z</time>
      </trkpt>
      <trkpt lat="44.79769" lon="6.96569">
        <ele>2255.7</ele>
        <time>2015-07-20T10:54:10Z</time>
      </trkpt>
      <trkpt lat="44.79785" lon="6.96572">
        <ele>2257.9</ele>
        <time>2015-07-20T10:54:33Z</time>
      </trkpt>
      <trkpt lat="44.79793" lon="6.96571">
        <ele>2257</ele>
        <time>2015-07-20T10:54:41Z</time>
      </trkpt>
      <trkpt lat="44.79801" lon="6.96572">
        <ele>2255.1</ele>
        <time>2015-07-20T10:54:49Z</time>
      </trkpt>
      <trkpt lat="44.7981" lon="6.96573">
        <ele>2254.8</ele>
        <time>2015-07-20T10:54:58Z</time>
      </trkpt>
      <trkpt lat="44.79818" lon="6.96577">
        <ele>2253.1</ele>
        <time>2015-07-20T10:55:09Z</time>
      </trkpt>
      <trkpt lat="44.79827" lon="6.9658">
        <ele>2251.7</ele>
        <time>2015-07-20T10:55:18Z</time>
      </trkpt>
      <trkpt lat="44.79827" lon="6.96581">
        <ele>2251.6</ele>
        <time>2015-07-20T10:55:19Z</time>
      </trkpt>
      <trkpt lat="44.7984" lon="6.96592">
        <ele>2249</ele>
        <time>2015-07-20T10:55:35Z</time>
      </trkpt>
      <trkpt lat="44.79849" lon="6.96594">
        <ele>2246.1</ele>
        <time>2015-07-20T10:55:45Z</time>
      </trkpt>
      <trkpt lat="44.79857" lon="6.96596">
        <ele>2242.8</ele>
        <time>2015-07-20T10:55:56Z</time>
      </trkpt>
      <trkpt lat="44.79866" lon="6.96598">
        <ele>2238.7</ele>
        <time>2015-07-20T10:56:05Z</time>
      </trkpt>
      <trkpt lat="44.79873" lon="6.96599">
        <ele>2234.7</ele>
        <time>2015-07-20T10:56:15Z</time>
      </trkpt>
      <trkpt lat="44.79881" lon="6.966">
        <ele>2232.7</ele>
        <time>2015-07-20T10:56:23Z</time>
      </trkpt>
      <trkpt lat="44.79882" lon="6.96601">
        <ele>2232.7</ele>
        <time>2015-07-20T10:56:24Z</time>
      </trkpt>
      <trkpt lat="44.79887" lon="6.96615">
        <ele>2232.4</ele>
        <time>2015-07-20T10:56:47Z</time>
      </trkpt>
      <trkpt lat="44.79887" lon="6.96626">
        <ele>2230.5</ele>
        <time>2015-07-20T10:56:57Z</time>
      </trkpt>
      <trkpt lat="44.79887" lon="6.96639">
        <ele>2226.2</ele>
        <time>2015-07-20T10:57:07Z</time>
      </trkpt>
      <trkpt lat="44.79891" lon="6.96649">
        <ele>2223.4</ele>
        <time>2015-07-20T10:57:16Z</time>
      </trkpt>
      <trkpt lat="44.79897" lon="6.96658">
        <ele>2220.9</ele>
        <time>2015-07-20T10:57:28Z</time>
      </trkpt>
      <trkpt lat="44.79898" lon="6.96659">
        <ele>2220.7</ele>
        <time>2015-07-20T10:57:29Z</time>
      </trkpt>
      <trkpt lat="44.79913" lon="6.96661">
        <ele>2217.3</ele>
        <time>2015-07-20T10:57:45Z</time>
      </trkpt>
      <trkpt lat="44.79921" lon="6.9666">
        <ele>2218.1</ele>
        <time>2015-07-20T10:57:56Z</time>
      </trkpt>
      <trkpt lat="44.79929" lon="6.96663">
        <ele>2216.3</ele>
        <time>2015-07-20T10:58:03Z</time>
      </trkpt>
      <trkpt lat="44.79937" lon="6.96665">
        <ele>2216.5</ele>
        <time>2015-07-20T10:58:11Z</time>
      </trkpt>
      <trkpt lat="44.79944" lon="6.96672">
        <ele>2217.9</ele>
        <time>2015-07-20T10:58:18Z</time>
      </trkpt>
      <trkpt lat="44.79953" lon="6.96675">
        <ele>2222.1</ele>
        <time>2015-07-20T10:58:26Z</time>
      </trkpt>
      <trkpt lat="44.79962" lon="6.96674">
        <ele>2223.7</ele>
        <time>2015-07-20T10:58:35Z</time>
      </trkpt>
      <trkpt lat="44.79962" lon="6.96675">
        <ele>2223.7</ele>
        <time>2015-07-20T10:58:36Z</time>
      </trkpt>
      <trkpt lat="44.79978" lon="6.9667">
        <ele>2221.8</ele>
        <time>2015-07-20T10:58:53Z</time>
      </trkpt>
      <trkpt lat="44.79987" lon="6.96667">
        <ele>2222.4</ele>
        <time>2015-07-20T10:59:02Z</time>
      </trkpt>
      <trkpt lat="44.79995" lon="6.96671">
        <ele>2210.2</ele>
        <time>2015-07-20T10:59:27Z</time>
      </trkpt>
      <trkpt lat="44.79996" lon="6.96684">
        <ele>2209.9</ele>
        <time>2015-07-20T10:59:46Z</time>
      </trkpt>
      <trkpt lat="44.79996" lon="6.96684">
        <ele>2209.8</ele>
        <time>2015-07-20T10:59:47Z</time>
      </trkpt>
      <trkpt lat="44.80012" lon="6.96684">
        <ele>2202.4</ele>
        <time>2015-07-20T11:00:16Z</time>
      </trkpt>
      <trkpt lat="44.8002" lon="6.96684">
        <ele>2200.4</ele>
        <time>2015-07-20T11:00:24Z</time>
      </trkpt>
      <trkpt lat="44.80028" lon="6.96683">
        <ele>2197.4</ele>
        <time>2015-07-20T11:00:33Z</time>
      </trkpt>
      <trkpt lat="44.80036" lon="6.96687">
        <ele>2193.3</ele>
        <time>2015-07-20T11:00:40Z</time>
      </trkpt>
      <trkpt lat="44.80045" lon="6.9669">
        <ele>2189</ele>
        <time>2015-07-20T11:00:48Z</time>
      </trkpt>
      <trkpt lat="44.80046" lon="6.9669">
        <ele>2188.5</ele>
        <time>2015-07-20T11:00:49Z</time>
      </trkpt>
      <trkpt lat="44.80062" lon="6.96694">
        <ele>2183.5</ele>
        <time>2015-07-20T11:01:03Z</time>
      </trkpt>
      <trkpt lat="44.80071" lon="6.96695">
        <ele>2184.4</ele>
        <time>2015-07-20T11:01:14Z</time>
      </trkpt>
      <trkpt lat="44.80079" lon="6.96696">
        <ele>2186.4</ele>
        <time>2015-07-20T11:01:19Z</time>
      </trkpt>
      <trkpt lat="44.80087" lon="6.967">
        <ele>2197.7</ele>
        <time>2015-07-20T11:01:25Z</time>
      </trkpt>
      <trkpt lat="44.80096" lon="6.96701">
        <ele>2197.8</ele>
        <time>2015-07-20T11:01:33Z</time>
      </trkpt>
      <trkpt lat="44.801" lon="6.96691">
        <ele>2195.4</ele>
        <time>2015-07-20T11:01:47Z</time>
      </trkpt>
      <trkpt lat="44.80103" lon="6.9668">
        <ele>2193.7</ele>
        <time>2015-07-20T11:01:57Z</time>
      </trkpt>
      <trkpt lat="44.80103" lon="6.96679">
        <ele>2193.3</ele>
        <time>2015-07-20T11:01:58Z</time>
      </trkpt>
      <trkpt lat="44.80114" lon="6.96663">
        <ele>2188.5</ele>
        <time>2015-07-20T11:02:16Z</time>
      </trkpt>
      <trkpt lat="44.80123" lon="6.96668">
        <ele>2185.4</ele>
        <time>2015-07-20T11:02:31Z</time>
      </trkpt>
      <trkpt lat="44.80131" lon="6.96672">
        <ele>2184.1</ele>
        <time>2015-07-20T11:02:40Z</time>
      </trkpt>
      <trkpt lat="44.80138" lon="6.96679">
        <ele>2180.6</ele>
        <time>2015-07-20T11:02:51Z</time>
      </trkpt>
      <trkpt lat="44.80142" lon="6.96689">
        <ele>2180.4</ele>
        <time>2015-07-20T11:03:00Z</time>
      </trkpt>
      <trkpt lat="44.80141" lon="6.96691">
        <ele>2180.9</ele>
        <time>2015-07-20T11:03:01Z</time>
      </trkpt>
      <trkpt lat="44.80146" lon="6.96713">
        <ele>2176.2</ele>
        <time>2015-07-20T11:03:19Z</time>
      </trkpt>
      <trkpt lat="44.8015" lon="6.96724">
        <ele>2175.5</ele>
        <time>2015-07-20T11:03:29Z</time>
      </trkpt>
      <trkpt lat="44.80155" lon="6.96734">
        <ele>2173.7</ele>
        <time>2015-07-20T11:03:38Z</time>
      </trkpt>
      <trkpt lat="44.80164" lon="6.96736">
        <ele>2171.1</ele>
        <time>2015-07-20T11:03:55Z</time>
      </trkpt>
      <trkpt lat="44.80172" lon="6.96733">
        <ele>2170.4</ele>
        <time>2015-07-20T11:04:03Z</time>
      </trkpt>
      <trkpt lat="44.80173" lon="6.96733">
        <ele>2170</ele>
        <time>2015-07-20T11:04:04Z</time>
      </trkpt>
      <trkpt lat="44.80186" lon="6.96722">
        <ele>2168.7</ele>
        <time>2015-07-20T11:04:17Z</time>
      </trkpt>
      <trkpt lat="44.80193" lon="6.96715">
        <ele>2166.6</ele>
        <time>2015-07-20T11:04:24Z</time>
      </trkpt>
      <trkpt lat="44.802" lon="6.96708">
        <ele>2165.3</ele>
        <time>2015-07-20T11:04:32Z</time>
      </trkpt>
      <trkpt lat="44.80207" lon="6.967">
        <ele>2164.5</ele>
        <time>2015-07-20T11:04:42Z</time>
      </trkpt>
      <trkpt lat="44.80214" lon="6.96694">
        <ele>2161.2</ele>
        <time>2015-07-20T11:04:52Z</time>
      </trkpt>
      <trkpt lat="44.80221" lon="6.9669">
        <ele>2160.6</ele>
        <time>2015-07-20T11:04:58Z</time>
      </trkpt>
      <trkpt lat="44.80229" lon="6.96684">
        <ele>2159.6</ele>
        <time>2015-07-20T11:05:04Z</time>
      </trkpt>
      <trkpt lat="44.8023" lon="6.96684">
        <ele>2159.6</ele>
        <time>2015-07-20T11:05:05Z</time>
      </trkpt>
      <trkpt lat="44.80245" lon="6.96678">
        <ele>2157.4</ele>
        <time>2015-07-20T11:05:16Z</time>
      </trkpt>
      <trkpt lat="44.80254" lon="6.96678">
        <ele>2155.9</ele>
        <time>2015-07-20T11:05:23Z</time>
      </trkpt>
      <trkpt lat="44.80254" lon="6.9669">
        <ele>2154.6</ele>
        <time>2015-07-20T11:05:36Z</time>
      </trkpt>
      <trkpt lat="44.80254" lon="6.96702">
        <ele>2153.9</ele>
        <time>2015-07-20T11:05:45Z</time>
      </trkpt>
      <trkpt lat="44.80253" lon="6.96714">
        <ele>2152.1</ele>
        <time>2015-07-20T11:05:54Z</time>
      </trkpt>
      <trkpt lat="44.8025" lon="6.96725">
        <ele>2150.6</ele>
        <time>2015-07-20T11:06:02Z</time>
      </trkpt>
      <trkpt lat="44.80254" lon="6.96736">
        <ele>2147</ele>
        <time>2015-07-20T11:06:13Z</time>
      </trkpt>
      <trkpt lat="44.80256" lon="6.96737">
        <ele>2146.9</ele>
        <time>2015-07-20T11:06:14Z</time>
      </trkpt>
      <trkpt lat="44.8027" lon="6.9674">
        <ele>2143.3</ele>
        <time>2015-07-20T11:06:31Z</time>
      </trkpt>
      <trkpt lat="44.80279" lon="6.96739">
        <ele>2143.4</ele>
        <time>2015-07-20T11:06:40Z</time>
      </trkpt>
      <trkpt lat="44.80287" lon="6.96736">
        <ele>2140.9</ele>
        <time>2015-07-20T11:06:48Z</time>
      </trkpt>
      <trkpt lat="44.80296" lon="6.96738">
        <ele>2139.6</ele>
        <time>2015-07-20T11:06:56Z</time>
      </trkpt>
      <trkpt lat="44.80304" lon="6.96738">
        <ele>2137</ele>
        <time>2015-07-20T11:07:02Z</time>
      </trkpt>
      <trkpt lat="44.80322" lon="6.96747">
        <ele>2135.5</ele>
        <time>2015-07-20T11:07:22Z</time>
      </trkpt>
      <trkpt lat="44.8033" lon="6.96752">
        <ele>2129.7</ele>
        <time>2015-07-20T11:07:39Z</time>
      </trkpt>
      <trkpt lat="44.80338" lon="6.96755">
        <ele>2126.1</ele>
        <time>2015-07-20T11:07:55Z</time>
      </trkpt>
      <trkpt lat="44.80346" lon="6.96759">
        <ele>2124</ele>
        <time>2015-07-20T11:08:05Z</time>
      </trkpt>
      <trkpt lat="44.80353" lon="6.96763">
        <ele>2122</ele>
        <time>2015-07-20T11:08:11Z</time>
      </trkpt>
      <trkpt lat="44.80361" lon="6.96768">
        <ele>2120.7</ele>
        <time>2015-07-20T11:08:20Z</time>
      </trkpt>
      <trkpt lat="44.8037" lon="6.9677">
        <ele>2119.1</ele>
        <time>2015-07-20T11:08:29Z</time>
      </trkpt>
      <trkpt lat="44.80371" lon="6.9677">
        <ele>2118.7</ele>
        <time>2015-07-20T11:08:30Z</time>
      </trkpt>
      <trkpt lat="44.80387" lon="6.96771">
        <ele>2114.7</ele>
        <time>2015-07-20T11:08:53Z</time>
      </trkpt>
      <trkpt lat="44.80395" lon="6.96775">
        <ele>2113</ele>
        <time>2015-07-20T11:09:01Z</time>
      </trkpt>
      <trkpt lat="44.80402" lon="6.96779">
        <ele>2110.6</ele>
        <time>2015-07-20T11:09:11Z</time>
      </trkpt>
      <trkpt lat="44.80406" lon="6.9679">
        <ele>2107.8</ele>
        <time>2015-07-20T11:09:23Z</time>
      </trkpt>
      <trkpt lat="44.80413" lon="6.96796">
        <ele>2105.2</ele>
        <time>2015-07-20T11:09:41Z</time>
      </trkpt>
      <trkpt lat="44.80414" lon="6.96796">
        <ele>2104.8</ele>
        <time>2015-07-20T11:09:42Z</time>
      </trkpt>
      <trkpt lat="44.8043" lon="6.96801">
        <ele>2101.7</ele>
        <time>2015-07-20T11:10:04Z</time>
      </trkpt>
      <trkpt lat="44.80439" lon="6.96798">
        <ele>2098.4</ele>
        <time>2015-07-20T11:10:21Z</time>
      </trkpt>
      <trkpt lat="44.80447" lon="6.96799">
        <ele>2095.6</ele>
        <time>2015-07-20T11:10:33Z</time>
      </trkpt>
      <trkpt lat="44.80456" lon="6.96799">
        <ele>2094.4</ele>
        <time>2015-07-20T11:10:40Z</time>
      </trkpt>
      <trkpt lat="44.80464" lon="6.968">
        <ele>2090.6</ele>
        <time>2015-07-20T11:10:55Z</time>
      </trkpt>
      <trkpt lat="44.80465" lon="6.968">
        <ele>2091</ele>
        <time>2015-07-20T11:10:56Z</time>
      </trkpt>
      <trkpt lat="44.80481" lon="6.96804">
        <ele>2087.7</ele>
        <time>2015-07-20T11:11:18Z</time>
      </trkpt>
      <trkpt lat="44.80489" lon="6.96803">
        <ele>2085.9</ele>
        <time>2015-07-20T11:11:28Z</time>
      </trkpt>
      <trkpt lat="44.80497" lon="6.96802">
        <ele>2084.2</ele>
        <time>2015-07-20T11:11:36Z</time>
      </trkpt>
      <trkpt lat="44.80506" lon="6.96801">
        <ele>2081</ele>
        <time>2015-07-20T11:11:49Z</time>
      </trkpt>
      <trkpt lat="44.80514" lon="6.968">
        <ele>2079.3</ele>
        <time>2015-07-20T11:12:01Z</time>
      </trkpt>
      <trkpt lat="44.80515" lon="6.968">
        <ele>2079.2</ele>
        <time>2015-07-20T11:12:02Z</time>
      </trkpt>
      <trkpt lat="44.80531" lon="6.96796">
        <ele>2076.5</ele>
        <time>2015-07-20T11:12:17Z</time>
      </trkpt>
      <trkpt lat="44.8054" lon="6.96798">
        <ele>2074.2</ele>
        <time>2015-07-20T11:12:28Z</time>
      </trkpt>
      <trkpt lat="44.80547" lon="6.9679">
        <ele>2072.3</ele>
        <time>2015-07-20T11:12:50Z</time>
      </trkpt>
      <trkpt lat="44.8055" lon="6.96802">
        <ele>2068.8</ele>
        <time>2015-07-20T11:13:12Z</time>
      </trkpt>
      <trkpt lat="44.80551" lon="6.96802">
        <ele>2068.3</ele>
        <time>2015-07-20T11:13:13Z</time>
      </trkpt>
      <trkpt lat="44.80562" lon="6.96819">
        <ele>2062.8</ele>
        <time>2015-07-20T11:13:40Z</time>
      </trkpt>
      <trkpt lat="44.8057" lon="6.96821">
        <ele>2061.6</ele>
        <time>2015-07-20T11:13:51Z</time>
      </trkpt>
      <trkpt lat="44.80577" lon="6.96828">
        <ele>2058.9</ele>
        <time>2015-07-20T11:14:01Z</time>
      </trkpt>
      <trkpt lat="44.80581" lon="6.96839">
        <ele>2056.2</ele>
        <time>2015-07-20T11:14:09Z</time>
      </trkpt>
      <trkpt lat="44.80589" lon="6.96843">
        <ele>2052.6</ele>
        <time>2015-07-20T11:14:24Z</time>
      </trkpt>
      <trkpt lat="44.80589" lon="6.96843">
        <ele>2052.4</ele>
        <time>2015-07-20T11:14:25Z</time>
      </trkpt>
      <trkpt lat="44.80604" lon="6.96855">
        <ele>2047.7</ele>
        <time>2015-07-20T11:14:42Z</time>
      </trkpt>
      <trkpt lat="44.80611" lon="6.9686">
        <ele>2046.9</ele>
        <time>2015-07-20T11:14:49Z</time>
      </trkpt>
      <trkpt lat="44.80618" lon="6.96868">
        <ele>2045.9</ele>
        <time>2015-07-20T11:14:57Z</time>
      </trkpt>
      <trkpt lat="44.80624" lon="6.96876">
        <ele>2042.4</ele>
        <time>2015-07-20T11:15:06Z</time>
      </trkpt>
      <trkpt lat="44.80628" lon="6.96886">
        <ele>2039.8</ele>
        <time>2015-07-20T11:15:17Z</time>
      </trkpt>
      <trkpt lat="44.80628" lon="6.96899">
        <ele>2038</ele>
        <time>2015-07-20T11:15:32Z</time>
      </trkpt>
      <trkpt lat="44.80629" lon="6.96899">
        <ele>2038.1</ele>
        <time>2015-07-20T11:15:33Z</time>
      </trkpt>
      <trkpt lat="44.80635" lon="6.96918">
        <ele>2032.9</ele>
        <time>2015-07-20T11:15:52Z</time>
      </trkpt>
      <trkpt lat="44.8064" lon="6.96929">
        <ele>2029.8</ele>
        <time>2015-07-20T11:16:00Z</time>
      </trkpt>
      <trkpt lat="44.80647" lon="6.96935">
        <ele>2027.8</ele>
        <time>2015-07-20T11:16:07Z</time>
      </trkpt>
      <trkpt lat="44.80654" lon="6.96941">
        <ele>2026.1</ele>
        <time>2015-07-20T11:16:14Z</time>
      </trkpt>
      <trkpt lat="44.80662" lon="6.96943">
        <ele>2022.6</ele>
        <time>2015-07-20T11:16:23Z</time>
      </trkpt>
      <trkpt lat="44.80656" lon="6.96934">
        <ele>2023.6</ele>
        <time>2015-07-20T11:17:01Z</time>
      </trkpt>
      <trkpt lat="44.80656" lon="6.96933">
        <ele>2023.7</ele>
        <time>2015-07-20T11:17:02Z</time>
      </trkpt>
      <trkpt lat="44.80669" lon="6.96919">
        <ele>2021.6</ele>
        <time>2015-07-20T11:17:33Z</time>
      </trkpt>
      <trkpt lat="44.80672" lon="6.96908">
        <ele>2022.3</ele>
        <time>2015-07-20T11:17:45Z</time>
      </trkpt>
      <trkpt lat="44.80675" lon="6.96898">
        <ele>2021.4</ele>
        <time>2015-07-20T11:17:54Z</time>
      </trkpt>
      <trkpt lat="44.80675" lon="6.96885">
        <ele>2022.3</ele>
        <time>2015-07-20T11:18:01Z</time>
      </trkpt>
      <trkpt lat="44.80672" lon="6.96875">
        <ele>2021.6</ele>
        <time>2015-07-20T11:18:07Z</time>
      </trkpt>
      <trkpt lat="44.80672" lon="6.96873">
        <ele>2021.9</ele>
        <time>2015-07-20T11:18:08Z</time>
      </trkpt>
      <trkpt lat="44.8067" lon="6.96852">
        <ele>2023.3</ele>
        <time>2015-07-20T11:18:22Z</time>
      </trkpt>
      <trkpt lat="44.80672" lon="6.96841">
        <ele>2022.3</ele>
        <time>2015-07-20T11:18:30Z</time>
      </trkpt>
      <trkpt lat="44.80676" lon="6.9683">
        <ele>2022.4</ele>
        <time>2015-07-20T11:18:39Z</time>
      </trkpt>
      <trkpt lat="44.8068" lon="6.96818">
        <ele>2022.5</ele>
        <time>2015-07-20T11:18:47Z</time>
      </trkpt>
      <trkpt lat="44.80681" lon="6.96807">
        <ele>2021.6</ele>
        <time>2015-07-20T11:18:56Z</time>
      </trkpt>
      <trkpt lat="44.80685" lon="6.96796">
        <ele>2021.6</ele>
        <time>2015-07-20T11:19:03Z</time>
      </trkpt>
      <trkpt lat="44.80691" lon="6.96786">
        <ele>2021.1</ele>
        <time>2015-07-20T11:19:09Z</time>
      </trkpt>
      <trkpt lat="44.80691" lon="6.96784">
        <ele>2021</ele>
        <time>2015-07-20T11:19:10Z</time>
      </trkpt>
      <trkpt lat="44.80682" lon="6.96764">
        <ele>2021.6</ele>
        <time>2015-07-20T11:19:21Z</time>
      </trkpt>
      <trkpt lat="44.80679" lon="6.96753">
        <ele>2022.3</ele>
        <time>2015-07-20T11:19:28Z</time>
      </trkpt>
      <trkpt lat="44.80677" lon="6.96741">
        <ele>2022.2</ele>
        <time>2015-07-20T11:19:36Z</time>
      </trkpt>
      <trkpt lat="44.80678" lon="6.96729">
        <ele>2023.7</ele>
        <time>2015-07-20T11:19:44Z</time>
      </trkpt>
      <trkpt lat="44.80682" lon="6.96719">
        <ele>2022.6</ele>
        <time>2015-07-20T11:19:51Z</time>
      </trkpt>
      <trkpt lat="44.80684" lon="6.96708">
        <ele>2021.3</ele>
        <time>2015-07-20T11:19:58Z</time>
      </trkpt>
      <trkpt lat="44.80686" lon="6.96697">
        <ele>2022.5</ele>
        <time>2015-07-20T11:20:05Z</time>
      </trkpt>
      <trkpt lat="44.80686" lon="6.96686">
        <ele>2021.7</ele>
        <time>2015-07-20T11:20:11Z</time>
      </trkpt>
      <trkpt lat="44.80685" lon="6.96684">
        <ele>2021.8</ele>
        <time>2015-07-20T11:20:12Z</time>
      </trkpt>
      <trkpt lat="44.80681" lon="6.96663">
        <ele>2022.4</ele>
        <time>2015-07-20T11:20:23Z</time>
      </trkpt>
      <trkpt lat="44.80677" lon="6.96652">
        <ele>2021.7</ele>
        <time>2015-07-20T11:20:29Z</time>
      </trkpt>
      <trkpt lat="44.80672" lon="6.96642">
        <ele>2021.8</ele>
        <time>2015-07-20T11:20:38Z</time>
      </trkpt>
      <trkpt lat="44.80671" lon="6.9663">
        <ele>2020.3</ele>
        <time>2015-07-20T11:20:53Z</time>
      </trkpt>
      <trkpt lat="44.80679" lon="6.96626">
        <ele>2020.2</ele>
        <time>2015-07-20T11:21:00Z</time>
      </trkpt>
      <trkpt lat="44.80687" lon="6.96618">
        <ele>2020.7</ele>
        <time>2015-07-20T11:21:07Z</time>
      </trkpt>
      <trkpt lat="44.80693" lon="6.9661">
        <ele>2019.9</ele>
        <time>2015-07-20T11:21:29Z</time>
      </trkpt>
      <trkpt lat="44.80693" lon="6.9661">
        <ele>2019.7</ele>
        <time>2015-07-20T11:21:30Z</time>
      </trkpt>
      <trkpt lat="44.80696" lon="6.96588">
        <ele>2022.1</ele>
        <time>2015-07-20T11:22:07Z</time>
      </trkpt>
      <trkpt lat="44.80695" lon="6.96577">
        <ele>2021.8</ele>
        <time>2015-07-20T11:22:13Z</time>
      </trkpt>
      <trkpt lat="44.80694" lon="6.96564">
        <ele>2022</ele>
        <time>2015-07-20T11:22:20Z</time>
      </trkpt>
      <trkpt lat="44.80692" lon="6.96553">
        <ele>2021.5</ele>
        <time>2015-07-20T11:22:28Z</time>
      </trkpt>
      <trkpt lat="44.80688" lon="6.96542">
        <ele>2020.5</ele>
        <time>2015-07-20T11:22:35Z</time>
      </trkpt>
      <trkpt lat="44.80687" lon="6.9654">
        <ele>2020.3</ele>
        <time>2015-07-20T11:22:36Z</time>
      </trkpt>
      <trkpt lat="44.80681" lon="6.96521">
        <ele>2021.8</ele>
        <time>2015-07-20T11:22:46Z</time>
      </trkpt>
      <trkpt lat="44.80679" lon="6.96509">
        <ele>2021</ele>
        <time>2015-07-20T11:22:55Z</time>
      </trkpt>
      <trkpt lat="44.8068" lon="6.96497">
        <ele>2020.9</ele>
        <time>2015-07-20T11:23:06Z</time>
      </trkpt>
      <trkpt lat="44.80675" lon="6.96487">
        <ele>2020.3</ele>
        <time>2015-07-20T11:23:14Z</time>
      </trkpt>
      <trkpt lat="44.80669" lon="6.96478">
        <ele>2020.6</ele>
        <time>2015-07-20T11:23:21Z</time>
      </trkpt>
      <trkpt lat="44.80663" lon="6.96471">
        <ele>2020.9</ele>
        <time>2015-07-20T11:23:28Z</time>
      </trkpt>
      <trkpt lat="44.80659" lon="6.9646">
        <ele>2020.5</ele>
        <time>2015-07-20T11:23:37Z</time>
      </trkpt>
      <trkpt lat="44.80659" lon="6.96459">
        <ele>2020.5</ele>
        <time>2015-07-20T11:23:38Z</time>
      </trkpt>
      <trkpt lat="44.80652" lon="6.96439">
        <ele>2021.7</ele>
        <time>2015-07-20T11:23:51Z</time>
      </trkpt>
      <trkpt lat="44.80653" lon="6.96428">
        <ele>2020.9</ele>
        <time>2015-07-20T11:23:58Z</time>
      </trkpt>
      <trkpt lat="44.80657" lon="6.96418">
        <ele>2021.5</ele>
        <time>2015-07-20T11:24:03Z</time>
      </trkpt>
      <trkpt lat="44.80661" lon="6.96409">
        <ele>2021.1</ele>
        <time>2015-07-20T11:24:07Z</time>
      </trkpt>
      <trkpt lat="44.80663" lon="6.96397">
        <ele>2019.9</ele>
        <time>2015-07-20T11:24:13Z</time>
      </trkpt>
      <trkpt lat="44.80663" lon="6.96385">
        <ele>2020.3</ele>
        <time>2015-07-20T11:24:20Z</time>
      </trkpt>
      <trkpt lat="44.80661" lon="6.96373">
        <ele>2019.4</ele>
        <time>2015-07-20T11:24:28Z</time>
      </trkpt>
      <trkpt lat="44.8066" lon="6.96361">
        <ele>2020.5</ele>
        <time>2015-07-20T11:24:38Z</time>
      </trkpt>
      <trkpt lat="44.80659" lon="6.9636">
        <ele>2020.7</ele>
        <time>2015-07-20T11:24:39Z</time>
      </trkpt>
      <trkpt lat="44.80662" lon="6.96338">
        <ele>2019.8</ele>
        <time>2015-07-20T11:24:59Z</time>
      </trkpt>
      <trkpt lat="44.80669" lon="6.96332">
        <ele>2020.8</ele>
        <time>2015-07-20T11:25:07Z</time>
      </trkpt>
      <trkpt lat="44.80676" lon="6.96327">
        <ele>2020.9</ele>
        <time>2015-07-20T11:25:14Z</time>
      </trkpt>
      <trkpt lat="44.80684" lon="6.96322">
        <ele>2021.3</ele>
        <time>2015-07-20T11:25:22Z</time>
      </trkpt>
      <trkpt lat="44.8069" lon="6.96315">
        <ele>2021.5</ele>
        <time>2015-07-20T11:25:29Z</time>
      </trkpt>
      <trkpt lat="44.80697" lon="6.96308">
        <ele>2020.1</ele>
        <time>2015-07-20T11:25:36Z</time>
      </trkpt>
      <trkpt lat="44.80701" lon="6.96299">
        <ele>2020.2</ele>
        <time>2015-07-20T11:25:43Z</time>
      </trkpt>
      <trkpt lat="44.80702" lon="6.96297">
        <ele>2020.1</ele>
        <time>2015-07-20T11:25:44Z</time>
      </trkpt>
      <trkpt lat="44.80712" lon="6.96283">
        <ele>2021.1</ele>
        <time>2015-07-20T11:25:56Z</time>
      </trkpt>
      <trkpt lat="44.80718" lon="6.96274">
        <ele>2020.9</ele>
        <time>2015-07-20T11:26:03Z</time>
      </trkpt>
      <trkpt lat="44.80722" lon="6.96264">
        <ele>2020.6</ele>
        <time>2015-07-20T11:26:10Z</time>
      </trkpt>
      <trkpt lat="44.80722" lon="6.96252">
        <ele>2020.6</ele>
        <time>2015-07-20T11:26:18Z</time>
      </trkpt>
      <trkpt lat="44.80726" lon="6.96241">
        <ele>2020.4</ele>
        <time>2015-07-20T11:26:24Z</time>
      </trkpt>
      <trkpt lat="44.80732" lon="6.96232">
        <ele>2020.7</ele>
        <time>2015-07-20T11:26:29Z</time>
      </trkpt>
      <trkpt lat="44.80737" lon="6.96222">
        <ele>2020.1</ele>
        <time>2015-07-20T11:26:35Z</time>
      </trkpt>
      <trkpt lat="44.80743" lon="6.96215">
        <ele>2020.1</ele>
        <time>2015-07-20T11:26:40Z</time>
      </trkpt>
      <trkpt lat="44.80746" lon="6.96203">
        <ele>2020.2</ele>
        <time>2015-07-20T11:26:49Z</time>
      </trkpt>
      <trkpt lat="44.80746" lon="6.96202">
        <ele>2020</ele>
        <time>2015-07-20T11:26:50Z</time>
      </trkpt>
      <trkpt lat="44.80749" lon="6.96179">
        <ele>2017.7</ele>
        <time>2015-07-20T11:27:07Z</time>
      </trkpt>
      <trkpt lat="44.80754" lon="6.96169">
        <ele>2017.8</ele>
        <time>2015-07-20T11:27:15Z</time>
      </trkpt>
      <trkpt lat="44.80755" lon="6.96157">
        <ele>2016.9</ele>
        <time>2015-07-20T11:27:23Z</time>
      </trkpt>
      <trkpt lat="44.80757" lon="6.96146">
        <ele>2016.9</ele>
        <time>2015-07-20T11:27:30Z</time>
      </trkpt>
      <trkpt lat="44.80756" lon="6.96134">
        <ele>2016.4</ele>
        <time>2015-07-20T11:27:37Z</time>
      </trkpt>
      <trkpt lat="44.8076" lon="6.96124">
        <ele>2017.7</ele>
        <time>2015-07-20T11:27:43Z</time>
      </trkpt>
      <trkpt lat="44.80764" lon="6.96113">
        <ele>2017.1</ele>
        <time>2015-07-20T11:27:50Z</time>
      </trkpt>
      <trkpt lat="44.80767" lon="6.96103">
        <ele>2016.7</ele>
        <time>2015-07-20T11:27:58Z</time>
      </trkpt>
      <trkpt lat="44.80767" lon="6.96102">
        <ele>2016.7</ele>
        <time>2015-07-20T11:27:59Z</time>
      </trkpt>
      <trkpt lat="44.80772" lon="6.9608">
        <ele>2016.5</ele>
        <time>2015-07-20T11:28:14Z</time>
      </trkpt>
      <trkpt lat="44.80774" lon="6.96069">
        <ele>2015</ele>
        <time>2015-07-20T11:28:21Z</time>
      </trkpt>
      <trkpt lat="44.80771" lon="6.96059">
        <ele>2015.4</ele>
        <time>2015-07-20T11:28:28Z</time>
      </trkpt>
      <trkpt lat="44.80769" lon="6.96048">
        <ele>2014.4</ele>
        <time>2015-07-20T11:28:36Z</time>
      </trkpt>
      <trkpt lat="44.80769" lon="6.96035">
        <ele>2014.7</ele>
        <time>2015-07-20T11:28:45Z</time>
      </trkpt>
      <trkpt lat="44.8077" lon="6.96023">
        <ele>2015.3</ele>
        <time>2015-07-20T11:28:53Z</time>
      </trkpt>
      <trkpt lat="44.80771" lon="6.96012">
        <ele>2013.4</ele>
        <time>2015-07-20T11:28:59Z</time>
      </trkpt>
      <trkpt lat="44.80768" lon="6.96">
        <ele>2011.7</ele>
        <time>2015-07-20T11:29:06Z</time>
      </trkpt>
      <trkpt lat="44.80768" lon="6.95999">
        <ele>2011.4</ele>
        <time>2015-07-20T11:29:07Z</time>
      </trkpt>
      <trkpt lat="44.80775" lon="6.9598">
        <ele>2011</ele>
        <time>2015-07-20T11:29:19Z</time>
      </trkpt>
      <trkpt lat="44.80781" lon="6.9597">
        <ele>2010.3</ele>
        <time>2015-07-20T11:29:25Z</time>
      </trkpt>
      <trkpt lat="44.80786" lon="6.9596">
        <ele>2009.5</ele>
        <time>2015-07-20T11:29:31Z</time>
      </trkpt>
      <trkpt lat="44.80791" lon="6.9595">
        <ele>2009</ele>
        <time>2015-07-20T11:29:38Z</time>
      </trkpt>
      <trkpt lat="44.80797" lon="6.95941">
        <ele>2008.8</ele>
        <time>2015-07-20T11:29:44Z</time>
      </trkpt>
      <trkpt lat="44.80801" lon="6.9593">
        <ele>2008</ele>
        <time>2015-07-20T11:29:51Z</time>
      </trkpt>
      <trkpt lat="44.80799" lon="6.95919">
        <ele>2008.6</ele>
        <time>2015-07-20T11:29:58Z</time>
      </trkpt>
      <trkpt lat="44.80798" lon="6.95908">
        <ele>2008.2</ele>
        <time>2015-07-20T11:30:05Z</time>
      </trkpt>
      <trkpt lat="44.80795" lon="6.95896">
        <ele>2006.7</ele>
        <time>2015-07-20T11:30:11Z</time>
      </trkpt>
      <trkpt lat="44.80795" lon="6.95894">
        <ele>2006.5</ele>
        <time>2015-07-20T11:30:12Z</time>
      </trkpt>
      <trkpt lat="44.8079" lon="6.95875">
        <ele>2007.2</ele>
        <time>2015-07-20T11:30:22Z</time>
      </trkpt>
      <trkpt lat="44.80792" lon="6.95862">
        <ele>2006.3</ele>
        <time>2015-07-20T11:30:29Z</time>
      </trkpt>
      <trkpt lat="44.80792" lon="6.9585">
        <ele>2007</ele>
        <time>2015-07-20T11:30:37Z</time>
      </trkpt>
      <trkpt lat="44.80795" lon="6.95839">
        <ele>2007.1</ele>
        <time>2015-07-20T11:30:46Z</time>
      </trkpt>
      <trkpt lat="44.80798" lon="6.95829">
        <ele>2005.3</ele>
        <time>2015-07-20T11:30:53Z</time>
      </trkpt>
      <trkpt lat="44.80799" lon="6.95817">
        <ele>2005.4</ele>
        <time>2015-07-20T11:31:00Z</time>
      </trkpt>
      <trkpt lat="44.80801" lon="6.95806">
        <ele>2004.7</ele>
        <time>2015-07-20T11:31:07Z</time>
      </trkpt>
      <trkpt lat="44.80801" lon="6.95793">
        <ele>2003.6</ele>
        <time>2015-07-20T11:31:18Z</time>
      </trkpt>
      <trkpt lat="44.80801" lon="6.95793">
        <ele>2003.3</ele>
        <time>2015-07-20T11:31:19Z</time>
      </trkpt>
      <trkpt lat="44.80799" lon="6.9577">
        <ele>1999.8</ele>
        <time>2015-07-20T11:31:40Z</time>
      </trkpt>
      <trkpt lat="44.80806" lon="6.95762">
        <ele>1997.5</ele>
        <time>2015-07-20T11:31:48Z</time>
      </trkpt>
      <trkpt lat="44.80809" lon="6.9575">
        <ele>1995</ele>
        <time>2015-07-20T11:31:59Z</time>
      </trkpt>
      <trkpt lat="44.80814" lon="6.95741">
        <ele>1992.2</ele>
        <time>2015-07-20T11:32:08Z</time>
      </trkpt>
      <trkpt lat="44.8082" lon="6.95734">
        <ele>1990.7</ele>
        <time>2015-07-20T11:32:14Z</time>
      </trkpt>
      <trkpt lat="44.80825" lon="6.95724">
        <ele>1988.7</ele>
        <time>2015-07-20T11:32:21Z</time>
      </trkpt>
      <trkpt lat="44.80826" lon="6.95722">
        <ele>1988.4</ele>
        <time>2015-07-20T11:32:22Z</time>
      </trkpt>
      <trkpt lat="44.80815" lon="6.95704">
        <ele>1985.7</ele>
        <time>2015-07-20T11:32:43Z</time>
      </trkpt>
      <trkpt lat="44.8082" lon="6.95695">
        <ele>1984.4</ele>
        <time>2015-07-20T11:32:49Z</time>
      </trkpt>
      <trkpt lat="44.80826" lon="6.95689">
        <ele>1982</ele>
        <time>2015-07-20T11:32:53Z</time>
      </trkpt>
      <trkpt lat="44.80833" lon="6.95684">
        <ele>1981.2</ele>
        <time>2015-07-20T11:32:57Z</time>
      </trkpt>
      <trkpt lat="44.8084" lon="6.95679">
        <ele>1980.8</ele>
        <time>2015-07-20T11:33:00Z</time>
      </trkpt>
      <trkpt lat="44.80847" lon="6.95675">
        <ele>1979.5</ele>
        <time>2015-07-20T11:33:03Z</time>
      </trkpt>
      <trkpt lat="44.80855" lon="6.95671">
        <ele>1978.4</ele>
        <time>2015-07-20T11:33:06Z</time>
      </trkpt>
      <trkpt lat="44.8086" lon="6.95663">
        <ele>1974.1</ele>
        <time>2015-07-20T11:33:41Z</time>
      </trkpt>
      <trkpt lat="44.80861" lon="6.95661">
        <ele>1973.8</ele>
        <time>2015-07-20T11:33:42Z</time>
      </trkpt>
      <trkpt lat="44.80872" lon="6.95648">
        <ele>1970.3</ele>
        <time>2015-07-20T11:34:02Z</time>
      </trkpt>
      <trkpt lat="44.80878" lon="6.95641">
        <ele>1968.8</ele>
        <time>2015-07-20T11:34:11Z</time>
      </trkpt>
      <trkpt lat="44.80882" lon="6.9563">
        <ele>1966.7</ele>
        <time>2015-07-20T11:34:24Z</time>
      </trkpt>
      <trkpt lat="44.80885" lon="6.95619">
        <ele>1965.9</ele>
        <time>2015-07-20T11:34:39Z</time>
      </trkpt>
      <trkpt lat="44.80889" lon="6.95608">
        <ele>1963.7</ele>
        <time>2015-07-20T11:34:56Z</time>
      </trkpt>
      <trkpt lat="44.8089" lon="6.95607">
        <ele>1963.6</ele>
        <time>2015-07-20T11:34:57Z</time>
      </trkpt>
      <trkpt lat="44.80904" lon="6.95598">
        <ele>1961</ele>
        <time>2015-07-20T11:35:08Z</time>
      </trkpt>
      <trkpt lat="44.80911" lon="6.95591">
        <ele>1960.1</ele>
        <time>2015-07-20T11:35:14Z</time>
      </trkpt>
      <trkpt lat="44.80916" lon="6.95582">
        <ele>1960.7</ele>
        <time>2015-07-20T11:35:21Z</time>
      </trkpt>
      <trkpt lat="44.80923" lon="6.95576">
        <ele>1958.9</ele>
        <time>2015-07-20T11:35:30Z</time>
      </trkpt>
      <trkpt lat="44.8093" lon="6.9557">
        <ele>1956.7</ele>
        <time>2015-07-20T11:35:39Z</time>
      </trkpt>
      <trkpt lat="44.80938" lon="6.95567">
        <ele>1955.4</ele>
        <time>2015-07-20T11:35:45Z</time>
      </trkpt>
      <trkpt lat="44.80945" lon="6.95561">
        <ele>1951.8</ele>
        <time>2015-07-20T11:35:51Z</time>
      </trkpt>
      <trkpt lat="44.80952" lon="6.95555">
        <ele>1950.3</ele>
        <time>2015-07-20T11:35:57Z</time>
      </trkpt>
      <trkpt lat="44.80953" lon="6.95554">
        <ele>1950</ele>
        <time>2015-07-20T11:35:58Z</time>
      </trkpt>
      <trkpt lat="44.80966" lon="6.95542">
        <ele>1945.6</ele>
        <time>2015-07-20T11:36:10Z</time>
      </trkpt>
      <trkpt lat="44.80974" lon="6.95536">
        <ele>1944.2</ele>
        <time>2015-07-20T11:36:15Z</time>
      </trkpt>
      <trkpt lat="44.80982" lon="6.95535">
        <ele>1944</ele>
        <time>2015-07-20T11:36:25Z</time>
      </trkpt>
      <trkpt lat="44.8099" lon="6.95529">
        <ele>1942.3</ele>
        <time>2015-07-20T11:36:49Z</time>
      </trkpt>
      <trkpt lat="44.80997" lon="6.95521">
        <ele>1942.1</ele>
        <time>2015-07-20T11:37:01Z</time>
      </trkpt>
      <trkpt lat="44.80998" lon="6.95521">
        <ele>1942.1</ele>
        <time>2015-07-20T11:37:02Z</time>
      </trkpt>
      <trkpt lat="44.81013" lon="6.95511">
        <ele>1938.2</ele>
        <time>2015-07-20T11:37:16Z</time>
      </trkpt>
      <trkpt lat="44.81021" lon="6.95506">
        <ele>1936.5</ele>
        <time>2015-07-20T11:37:21Z</time>
      </trkpt>
      <trkpt lat="44.81029" lon="6.95502">
        <ele>1935.5</ele>
        <time>2015-07-20T11:37:26Z</time>
      </trkpt>
      <trkpt lat="44.81035" lon="6.95493">
        <ele>1934.4</ele>
        <time>2015-07-20T11:37:33Z</time>
      </trkpt>
      <trkpt lat="44.8104" lon="6.95483">
        <ele>1931.9</ele>
        <time>2015-07-20T11:37:42Z</time>
      </trkpt>
      <trkpt lat="44.81047" lon="6.95477">
        <ele>1930.9</ele>
        <time>2015-07-20T11:37:48Z</time>
      </trkpt>
      <trkpt lat="44.81054" lon="6.95469">
        <ele>1928.5</ele>
        <time>2015-07-20T11:37:53Z</time>
      </trkpt>
      <trkpt lat="44.81059" lon="6.9546">
        <ele>1926.8</ele>
        <time>2015-07-20T11:38:00Z</time>
      </trkpt>
      <trkpt lat="44.81064" lon="6.95451">
        <ele>1926.2</ele>
        <time>2015-07-20T11:38:06Z</time>
      </trkpt>
      <trkpt lat="44.81064" lon="6.95449">
        <ele>1925.6</ele>
        <time>2015-07-20T11:38:07Z</time>
      </trkpt>
      <trkpt lat="44.81075" lon="6.95436">
        <ele>1921.9</ele>
        <time>2015-07-20T11:38:18Z</time>
      </trkpt>
      <trkpt lat="44.8108" lon="6.95426">
        <ele>1919.1</ele>
        <time>2015-07-20T11:38:26Z</time>
      </trkpt>
      <trkpt lat="44.81087" lon="6.95419">
        <ele>1917.2</ele>
        <time>2015-07-20T11:38:33Z</time>
      </trkpt>
      <trkpt lat="44.81093" lon="6.95412">
        <ele>1915.9</ele>
        <time>2015-07-20T11:38:40Z</time>
      </trkpt>
      <trkpt lat="44.81098" lon="6.95405">
        <ele>1914.3</ele>
        <time>2015-07-20T11:38:44Z</time>
      </trkpt>
      <trkpt lat="44.81104" lon="6.95396">
        <ele>1913.3</ele>
        <time>2015-07-20T11:38:50Z</time>
      </trkpt>
      <trkpt lat="44.81109" lon="6.95386">
        <ele>1911.6</ele>
        <time>2015-07-20T11:38:57Z</time>
      </trkpt>
      <trkpt lat="44.81113" lon="6.95376">
        <ele>1910.9</ele>
        <time>2015-07-20T11:39:04Z</time>
      </trkpt>
      <trkpt lat="44.81114" lon="6.95365">
        <ele>1909</ele>
        <time>2015-07-20T11:39:10Z</time>
      </trkpt>
      <trkpt lat="44.81114" lon="6.95363">
        <ele>1908.6</ele>
        <time>2015-07-20T11:39:11Z</time>
      </trkpt>
      <trkpt lat="44.81124" lon="6.95346">
        <ele>1906.4</ele>
        <time>2015-07-20T11:39:19Z</time>
      </trkpt>
      <trkpt lat="44.8113" lon="6.9534">
        <ele>1905.6</ele>
        <time>2015-07-20T11:39:22Z</time>
      </trkpt>
      <trkpt lat="44.81136" lon="6.95332">
        <ele>1903.9</ele>
        <time>2015-07-20T11:39:29Z</time>
      </trkpt>
      <trkpt lat="44.81141" lon="6.95322">
        <ele>1895.4</ele>
        <time>2015-07-20T11:39:52Z</time>
      </trkpt>
      <trkpt lat="44.81145" lon="6.95312">
        <ele>1891.8</ele>
        <time>2015-07-20T11:40:03Z</time>
      </trkpt>
      <trkpt lat="44.81151" lon="6.95304">
        <ele>1889.3</ele>
        <time>2015-07-20T11:40:10Z</time>
      </trkpt>
      <trkpt lat="44.81158" lon="6.95302">
        <ele>1887.7</ele>
        <time>2015-07-20T11:40:15Z</time>
      </trkpt>
      <trkpt lat="44.8116" lon="6.95303">
        <ele>1887.6</ele>
        <time>2015-07-20T11:40:16Z</time>
      </trkpt>
      <trkpt lat="44.81168" lon="6.95322">
        <ele>1881.2</ele>
        <time>2015-07-20T11:40:35Z</time>
      </trkpt>
      <trkpt lat="44.81175" lon="6.9533">
        <ele>1879.6</ele>
        <time>2015-07-20T11:40:41Z</time>
      </trkpt>
      <trkpt lat="44.8118" lon="6.9534">
        <ele>1875.4</ele>
        <time>2015-07-20T11:40:51Z</time>
      </trkpt>
      <trkpt lat="44.81182" lon="6.95352">
        <ele>1871.1</ele>
        <time>2015-07-20T11:41:02Z</time>
      </trkpt>
      <trkpt lat="44.81179" lon="6.95364">
        <ele>1867.8</ele>
        <time>2015-07-20T11:41:10Z</time>
      </trkpt>
      <trkpt lat="44.81171" lon="6.9536">
        <ele>1863.6</ele>
        <time>2015-07-20T11:41:29Z</time>
      </trkpt>
      <trkpt lat="44.81171" lon="6.95359">
        <ele>1863.6</ele>
        <time>2015-07-20T11:41:30Z</time>
      </trkpt>
      <trkpt lat="44.81173" lon="6.95337">
        <ele>1858.7</ele>
        <time>2015-07-20T11:41:46Z</time>
      </trkpt>
      <trkpt lat="44.81168" lon="6.95328">
        <ele>1856.2</ele>
        <time>2015-07-20T11:41:51Z</time>
      </trkpt>
      <trkpt lat="44.81288" lon="6.95134">
        <ele>1846.6</ele>
        <time>2015-07-20T11:44:21Z</time>
      </trkpt>
      <trkpt lat="44.8129" lon="6.95124">
        <ele>1821.9</ele>
        <time>2015-07-20T11:44:27Z</time>
      </trkpt>
      <trkpt lat="44.81321" lon="6.95039">
        <ele>1818.7</ele>
        <time>2015-07-20T11:45:26Z</time>
      </trkpt>
      <trkpt lat="44.81317" lon="6.9503">
        <ele>1812.6</ele>
        <time>2015-07-20T11:45:30Z</time>
      </trkpt>
      <trkpt lat="44.81311" lon="6.95022">
        <ele>1810.1</ele>
        <time>2015-07-20T11:45:33Z</time>
      </trkpt>
      <trkpt lat="44.81304" lon="6.95014">
        <ele>1808.5</ele>
        <time>2015-07-20T11:45:36Z</time>
      </trkpt>
      <trkpt lat="44.81298" lon="6.95005">
        <ele>1806.9</ele>
        <time>2015-07-20T11:45:40Z</time>
      </trkpt>
      <trkpt lat="44.81294" lon="6.95">
        <ele>1806.1</ele>
        <time>2015-07-20T11:45:42Z</time>
      </trkpt>
      <trkpt lat="44.81287" lon="6.94994">
        <ele>1805.3</ele>
        <time>2015-07-20T11:45:44Z</time>
      </trkpt>
      <trkpt lat="44.8128" lon="6.94988">
        <ele>1804.9</ele>
        <time>2015-07-20T11:45:46Z</time>
      </trkpt>
      <trkpt lat="44.81274" lon="6.94983">
        <ele>1805.2</ele>
        <time>2015-07-20T11:45:48Z</time>
      </trkpt>
      <trkpt lat="44.81268" lon="6.94976">
        <ele>1804.7</ele>
        <time>2015-07-20T11:45:52Z</time>
      </trkpt>
      <trkpt lat="44.81263" lon="6.94967">
        <ele>1803.9</ele>
        <time>2015-07-20T11:45:56Z</time>
      </trkpt>
      <trkpt lat="44.81257" lon="6.94963">
        <ele>1803.7</ele>
        <time>2015-07-20T11:45:58Z</time>
      </trkpt>
      <trkpt lat="44.8125" lon="6.94957">
        <ele>1803.3</ele>
        <time>2015-07-20T11:46:00Z</time>
      </trkpt>
      <trkpt lat="44.81243" lon="6.94951">
        <ele>1803.2</ele>
        <time>2015-07-20T11:46:02Z</time>
      </trkpt>
      <trkpt lat="44.81856" lon="6.9447">
        <ele>1801</ele>
        <time>2015-07-20T12:00:35Z</time>
      </trkpt>
      <trkpt lat="44.81864" lon="6.94468">
        <ele>1796.2</ele>
        <time>2015-07-20T12:00:42Z</time>
      </trkpt>
      <trkpt lat="44.81869" lon="6.94467">
        <ele>1795.7</ele>
        <time>2015-07-20T12:00:46Z</time>
      </trkpt>
      <trkpt lat="44.81877" lon="6.94459">
        <ele>1796.2</ele>
        <time>2015-07-20T12:01:05Z</time>
      </trkpt>
      <trkpt lat="44.81878" lon="6.94459">
        <ele>1796.7</ele>
        <time>2015-07-20T12:01:06Z</time>
      </trkpt>
      <trkpt lat="44.81894" lon="6.94448">
        <ele>1797</ele>
        <time>2015-07-20T12:01:26Z</time>
      </trkpt>
      <trkpt lat="44.81902" lon="6.94444">
        <ele>1798.6</ele>
        <time>2015-07-20T12:01:32Z</time>
      </trkpt>
      <trkpt lat="44.81909" lon="6.94442">
        <ele>1798.4</ele>
        <time>2015-07-20T12:01:36Z</time>
      </trkpt>
      <trkpt lat="44.81911" lon="6.94441">
        <ele>1798.4</ele>
        <time>2015-07-20T12:01:37Z</time>
      </trkpt>
      <trkpt lat="44.81921" lon="6.94438">
        <ele>1799.8</ele>
        <time>2015-07-20T12:01:43Z</time>
      </trkpt>
      <trkpt lat="44.81941" lon="6.94426">
        <ele>1800.5</ele>
        <time>2015-07-20T12:02:08Z</time>
      </trkpt>
      <trkpt lat="44.81946" lon="6.94426">
        <ele>1803</ele>
        <time>2015-07-20T12:02:20Z</time>
      </trkpt>
      <trkpt lat="44.81949" lon="6.94422">
        <ele>1802.5</ele>
        <time>2015-07-20T12:02:29Z</time>
      </trkpt>
      <trkpt lat="44.81949" lon="6.94422">
        <ele>1802.5</ele>
        <time>2015-07-20T12:02:29Z</time>
      </trkpt>
    </trkseg>
  </trk>
</gpx>